Wetterdaten: Mittwoch, 08.07.2015
Datum Zeit Temp. Aussen +5cm Feuchte Auss BlattFeu 1 Luftdruck Regen Sonnenschein Regendauer Solar Windben
08.07.2015 00:00 19,9 C 16,1 C 70 % 15 lf 1007,1 hPa 0,0 l/m 0 min 2 min 0 W/m 18,8 km/h (3 Bft)
08.07.2015 00:02 20,0 C 16,7 C 70 % 15 lf 1007,1 hPa 0,0 l/m 0 min 0 min 0 W/m 10,5 km/h (2 Bft)
08.07.2015 00:05 19,7 C 17,2 C 70 % 1 lf 1007,7 hPa 0,0 l/m 0 min 0 min 0 W/m 41,8 km/h (6 Bft)
08.07.2015 00:06 19,7 C 17,2 C 69 % 0 lf 1007,9 hPa 0,0 l/m 0 min 0 min 0 W/m 41,8 km/h (6 Bft)
08.07.2015 00:08 19,6 C 17,2 C 69 % 15 lf 1008,0 hPa 0,0 l/m 0 min 0 min 0 W/m 27,2 km/h (4 Bft)
08.07.2015 00:10 19,5 C 16,1 C 70 % 15 lf 1007,9 hPa 0,0 l/m 0 min 2 min 0 W/m 31,4 km/h (5 Bft)
08.07.2015 00:12 19,4 C 15,0 C 73 % 15 lf 1007,9 hPa 0,2 l/m 0 min 2 min 0 W/m 35,6 km/h (5 Bft)
08.07.2015 00:14 19,2 C 14,4 C 73 % 15 lf 1007,9 hPa 0,0 l/m 0 min 2 min 0 W/m 37,7 km/h (5 Bft)
08.07.2015 00:16 19,0 C 14,4 C 74 % 15 lf 1007,8 hPa 0,0 l/m 0 min 2 min 0 W/m 29,3 km/h (5 Bft)
08.07.2015 00:18 18,8 C 14,4 C 75 % 15 lf 1007,8 hPa 0,2 l/m 0 min 2 min 0 W/m 35,6 km/h (5 Bft)
08.07.2015 00:20 18,6 C 13,9 C 76 % 15 lf 1007,8 hPa 0,0 l/m 0 min 2 min 0 W/m 37,7 km/h (5 Bft)
08.07.2015 00:22 18,4 C 13,9 C 77 % 15 lf 1007,8 hPa 0,2 l/m 0 min 2 min 0 W/m 23,0 km/h (4 Bft)
08.07.2015 00:24 18,2 C 13,9 C 79 % 15 lf 1007,9 hPa 0,0 l/m 0 min 2 min 0 W/m 25,1 km/h (4 Bft)
08.07.2015 00:26 18,1 C 13,9 C 79 % 15 lf 1007,8 hPa 0,0 l/m 0 min 2 min 0 W/m 25,1 km/h (4 Bft)
08.07.2015 00:28 17,9 C 13,9 C 80 % 15 lf 1008,0 hPa 0,2 l/m 0 min 2 min 0 W/m 23,0 km/h (4 Bft)
08.07.2015 00:30 17,6 C 13,9 C 81 % 15 lf 1008,1 hPa 0,0 l/m 0 min 2 min 0 W/m 20,9 km/h (4 Bft)
08.07.2015 00:32 17,3 C 13,9 C 82 % 15 lf 1008,1 hPa 0,0 l/m 0 min 2 min 0 W/m 27,2 km/h (4 Bft)
08.07.2015 00:34 17,1 C 13,9 C 83 % 15 lf 1008,3 hPa 0,0 l/m 0 min 2 min 0 W/m 25,1 km/h (4 Bft)
08.07.2015 00:36 16,9 C 13,9 C 84 % 15 lf 1008,4 hPa 0,0 l/m 0 min 0 min 0 W/m 25,1 km/h (4 Bft)
08.07.2015 00:38 16,8 C 13,9 C 85 % 15 lf 1008,3 hPa 0,0 l/m 0 min 2 min 0 W/m 16,7 km/h (3 Bft)
08.07.2015 00:40 16,7 C 13,9 C 85 % 15 lf 1008,1 hPa 0,0 l/m 0 min 2 min 0 W/m 20,9 km/h (4 Bft)
08.07.2015 00:42 16,5 C 13,9 C 86 % 15 lf 1008,1 hPa 0,0 l/m 0 min 2 min 0 W/m 25,1 km/h (4 Bft)
08.07.2015 00:44 16,4 C 13,9 C 87 % 15 lf 1008,1 hPa 0,2 l/m 0 min 2 min 0 W/m 33,5 km/h (5 Bft)
08.07.2015 00:46 16,3 C 13,9 C 87 % 15 lf 1008,3 hPa 0,0 l/m 0 min 2 min 0 W/m 25,1 km/h (4 Bft)
08.07.2015 00:48 16,2 C 13,9 C 88 % 15 lf 1008,3 hPa 0,2 l/m 0 min 2 min 0 W/m 25,1 km/h (4 Bft)
08.07.2015 00:50 16,1 C 13,9 C 88 % 15 lf 1008,2 hPa 0,0 l/m 0 min 2 min 0 W/m 20,9 km/h (4 Bft)
08.07.2015 00:52 15,9 C 13,9 C 88 % 15 lf 1008,0 hPa 0,0 l/m 0 min 2 min 0 W/m 20,9 km/h (4 Bft)
08.07.2015 00:54 15,8 C 13,9 C 89 % 15 lf 1007,9 hPa 0,0 l/m 0 min 2 min 0 W/m 23,0 km/h (4 Bft)
08.07.2015 00:56 15,8 C 13,9 C 89 % 15 lf 1007,9 hPa 0,0 l/m 0 min 2 min 0 W/m 20,9 km/h (4 Bft)
08.07.2015 00:58 15,7 C 13,9 C 90 % 15 lf 1007,9 hPa 0,0 l/m 0 min 2 min 0 W/m 29,3 km/h (5 Bft)
08.07.2015 01:00 15,7 C 13,9 C 90 % 15 lf 1007,8 hPa 0,0 l/m 0 min 2 min 0 W/m 25,1 km/h (4 Bft)
08.07.2015 01:02 15,6 C 13,9 C 90 % 15 lf 1007,8 hPa 0,0 l/m 0 min 2 min 0 W/m 20,9 km/h (4 Bft)
08.07.2015 01:04 15,5 C 13,9 C 91 % 15 lf 1007,9 hPa 0,0 l/m 0 min 2 min 0 W/m 16,7 km/h (3 Bft)
08.07.2015 01:06 15,4 C 13,9 C 91 % 15 lf 1007,8 hPa 0,0 l/m 0 min 0 min 0 W/m 20,9 km/h (4 Bft)
08.07.2015 01:08 15,3 C 13,3 C 91 % 15 lf 1007,9 hPa 0,0 l/m 0 min 0 min 0 W/m 23,0 km/h (4 Bft)
08.07.2015 01:10 15,3 C 13,3 C 91 % 15 lf 1007,8 hPa 0,0 l/m 0 min 0 min 0 W/m 18,8 km/h (3 Bft)
08.07.2015 01:12 15,2 C 13,3 C 91 % 15 lf 1007,8 hPa 0,0 l/m 0 min 0 min 0 W/m 20,9 km/h (4 Bft)
08.07.2015 01:14 15,2 C 13,3 C 92 % 15 lf 1007,8 hPa 0,0 l/m 0 min 0 min 0 W/m 20,9 km/h (4 Bft)
08.07.2015 01:16 15,1 C 13,3 C 92 % 15 lf 1007,8 hPa 0,0 l/m 0 min 0 min 0 W/m 23,0 km/h (4 Bft)
08.07.2015 01:18 15,1 C 13,3 C 92 % 15 lf 1007,8 hPa 0,0 l/m 0 min 0 min 0 W/m 20,9 km/h (4 Bft)
08.07.2015 01:20 15,1 C 13,3 C 92 % 15 lf 1007,8 hPa 0,0 l/m 0 min 0 min 0 W/m 23,0 km/h (4 Bft)
08.07.2015 01:22 15,0 C 13,3 C 92 % 15 lf 1007,8 hPa 0,0 l/m 0 min 0 min 0 W/m 23,0 km/h (4 Bft)
08.07.2015 01:24 15,0 C 13,3 C 92 % 15 lf 1007,8 hPa 0,0 l/m 0 min 0 min 0 W/m 18,8 km/h (3 Bft)
08.07.2015 01:26 15,0 C 13,3 C 93 % 15 lf 1007,8 hPa 0,0 l/m 0 min 0 min 0 W/m 23,0 km/h (4 Bft)
08.07.2015 01:28 14,9 C 13,3 C 93 % 15 lf 1007,7 hPa 0,0 l/m 0 min 0 min 0 W/m 16,7 km/h (3 Bft)
08.07.2015 01:30 14,9 C 13,3 C 93 % 15 lf 1007,7 hPa 0,0 l/m 0 min 0 min 0 W/m 31,4 km/h (5 Bft)
08.07.2015 01:32 14,9 C 13,3 C 93 % 15 lf 1007,7 hPa 0,0 l/m 0 min 0 min 0 W/m 18,8 km/h (3 Bft)
08.07.2015 01:34 14,9 C 13,3 C 93 % 15 lf 1007,7 hPa 0,0 l/m 0 min 0 min 0 W/m 27,2 km/h (4 Bft)
08.07.2015 01:36 14,9 C 13,3 C 93 % 15 lf 1007,8 hPa 0,2 l/m 0 min 0 min 0 W/m 18,8 km/h (3 Bft)
08.07.2015 01:38 14,9 C 13,3 C 93 % 15 lf 1007,7 hPa 0,0 l/m 0 min 0 min 0 W/m 23,0 km/h (4 Bft)
08.07.2015 01:40 14,9 C 13,3 C 93 % 15 lf 1007,8 hPa 0,0 l/m 0 min 0 min 0 W/m 27,2 km/h (4 Bft)
08.07.2015 01:42 14,9 C 13,3 C 93 % 15 lf 1007,8 hPa 0,0 l/m 0 min 0 min 0 W/m 27,2 km/h (4 Bft)
08.07.2015 01:44 14,9 C 13,3 C 93 % 15 lf 1007,8 hPa 0,0 l/m 0 min 0 min 0 W/m 23,0 km/h (4 Bft)
08.07.2015 01:46 14,9 C 13,3 C 93 % 15 lf 1007,7 hPa 0,0 l/m 0 min 0 min 0 W/m 20,9 km/h (4 Bft)
08.07.2015 01:48 14,9 C 13,3 C 93 % 15 lf 1007,8 hPa 0,0 l/m 0 min 0 min 0 W/m 14,6 km/h (3 Bft)
08.07.2015 01:50 14,9 C 13,3 C 93 % 15 lf 1007,8 hPa 0,0 l/m 0 min 0 min 0 W/m 16,7 km/h (3 Bft)
08.07.2015 01:52 14,9 C 13,3 C 94 % 15 lf 1007,8 hPa 0,0 l/m 0 min 0 min 0 W/m 20,9 km/h (4 Bft)
08.07.2015 01:54 14,8 C 13,3 C 94 % 15 lf 1007,8 hPa 0,0 l/m 0 min 0 min 0 W/m 20,9 km/h (4 Bft)
08.07.2015 01:56 14,8 C 13,3 C 94 % 15 lf 1007,7 hPa 0,0 l/m 0 min 0 min 0 W/m 16,7 km/h (3 Bft)
08.07.2015 01:58 14,8 C 13,3 C 94 % 15 lf 1007,8 hPa 0,0 l/m 0 min 0 min 0 W/m 20,9 km/h (4 Bft)
08.07.2015 02:00 14,8 C 13,3 C 94 % 15 lf 1007,8 hPa 0,0 l/m 0 min 0 min 0 W/m 29,3 km/h (5 Bft)
08.07.2015 02:02 14,8 C 13,3 C 94 % 15 lf 1007,8 hPa 0,0 l/m 0 min 0 min 0 W/m 29,3 km/h (5 Bft)
08.07.2015 02:04 14,8 C 13,3 C 94 % 15 lf 1007,8 hPa 0,0 l/m 0 min 0 min 0 W/m 25,1 km/h (4 Bft)
08.07.2015 02:06 14,8 C 13,3 C 94 % 15 lf 1007,8 hPa 0,0 l/m 0 min 0 min 0 W/m 33,5 km/h (5 Bft)
08.07.2015 02:08 14,8 C 13,3 C 94 % 15 lf 1007,8 hPa 0,0 l/m 0 min 0 min 0 W/m 18,8 km/h (3 Bft)
08.07.2015 02:10 14,8 C 13,3 C 94 % 15 lf 1007,8 hPa 0,0 l/m 0 min 0 min 0 W/m 25,1 km/h (4 Bft)
08.07.2015 02:12 14,8 C 13,3 C 94 % 15 lf 1007,8 hPa 0,0 l/m 0 min 0 min 0 W/m 23,0 km/h (4 Bft)
08.07.2015 02:14 14,8 C 13,3 C 94 % 15 lf 1007,8 hPa 0,0 l/m 0 min 0 min 0 W/m 18,8 km/h (3 Bft)
08.07.2015 02:16 14,8 C 13,3 C 94 % 15 lf 1007,8 hPa 0,0 l/m 0 min 0 min 0 W/m 25,1 km/h (4 Bft)
08.07.2015 02:18 14,8 C 12,8 C 94 % 15 lf 1007,8 hPa 0,0 l/m 0 min 0 min 0 W/m 23,0 km/h (4 Bft)
08.07.2015 02:20 14,8 C 12,8 C 94 % 15 lf 1007,8 hPa 0,0 l/m 0 min 0 min 0 W/m 27,2 km/h (4 Bft)
08.07.2015 02:22 14,8 C 13,3 C 94 % 15 lf 1007,8 hPa 0,0 l/m 0 min 0 min 0 W/m 31,4 km/h (5 Bft)
08.07.2015 02:24 14,8 C 13,3 C 94 % 15 lf 1007,9 hPa 0,0 l/m 0 min 0 min 0 W/m 23,0 km/h (4 Bft)
08.07.2015 02:26 14,8 C 13,3 C 94 % 15 lf 1007,8 hPa 0,0 l/m 0 min 0 min 0 W/m 23,0 km/h (4 Bft)
08.07.2015 02:28 14,8 C 12,8 C 94 % 15 lf 1007,8 hPa 0,0 l/m 0 min 0 min 0 W/m 27,2 km/h (4 Bft)
08.07.2015 02:30 14,8 C 12,8 C 94 % 15 lf 1007,8 hPa 0,0 l/m 0 min 0 min 0 W/m 25,1 km/h (4 Bft)
08.07.2015 02:32 14,8 C 12,8 C 93 % 15 lf 1007,7 hPa 0,0 l/m 0 min 0 min 0 W/m 27,2 km/h (4 Bft)
08.07.2015 02:34 14,7 C 12,8 C 93 % 15 lf 1007,8 hPa 0,0 l/m 0 min 0 min 0 W/m 20,9 km/h (4 Bft)
08.07.2015 02:36 14,7 C 12,8 C 93 % 15 lf 1007,8 hPa 0,0 l/m 0 min 0 min 0 W/m 18,8 km/h (3 Bft)
08.07.2015 02:38 14,7 C 12,8 C 93 % 15 lf 1007,8 hPa 0,0 l/m 0 min 0 min 0 W/m 20,9 km/h (4 Bft)
08.07.2015 02:40 14,7 C 12,8 C 93 % 15 lf 1007,8 hPa 0,0 l/m 0 min 0 min 0 W/m 31,4 km/h (5 Bft)
08.07.2015 02:42 14,7 C 12,8 C 93 % 15 lf 1007,8 hPa 0,0 l/m 0 min 0 min 0 W/m 25,1 km/h (4 Bft)
08.07.2015 02:44 14,7 C 12,8 C 93 % 15 lf 1007,8 hPa 0,0 l/m 0 min 0 min 0 W/m 27,2 km/h (4 Bft)
08.07.2015 02:46 14,6 C 12,8 C 93 % 15 lf 1007,8 hPa 0,0 l/m 0 min 0 min 0 W/m 25,1 km/h (4 Bft)
08.07.2015 02:48 14,6 C 12,8 C 93 % 15 lf 1007,8 hPa 0,0 l/m 0 min 0 min 0 W/m 23,0 km/h (4 Bft)
08.07.2015 02:50 14,5 C 12,8 C 93 % 15 lf 1007,9 hPa 0,0 l/m 0 min 0 min 0 W/m 23,0 km/h (4 Bft)
08.07.2015 02:52 14,5 C 12,8 C 93 % 15 lf 1007,8 hPa 0,0 l/m 0 min 0 min 0 W/m 23,0 km/h (4 Bft)
08.07.2015 02:54 14,5 C 12,8 C 93 % 15 lf 1007,9 hPa 0,0 l/m 0 min 0 min 0 W/m 33,5 km/h (5 Bft)
08.07.2015 02:56 14,4 C 12,8 C 93 % 15 lf 1007,9 hPa 0,0 l/m 0 min 0 min 0 W/m 20,9 km/h (4 Bft)
08.07.2015 02:58 14,4 C 12,8 C 93 % 15 lf 1007,9 hPa 0,0 l/m 0 min 0 min 0 W/m 23,0 km/h (4 Bft)
08.07.2015 03:00 14,4 C 12,8 C 92 % 15 lf 1008,0 hPa 0,0 l/m 0 min 0 min 0 W/m 16,7 km/h (3 Bft)
08.07.2015 03:02 14,4 C 12,2 C 92 % 15 lf 1008,0 hPa 0,0 l/m 0 min 0 min 0 W/m 29,3 km/h (5 Bft)
08.07.2015 03:04 14,4 C 12,2 C 92 % 15 lf 1008,0 hPa 0,0 l/m 0 min 0 min 0 W/m 27,2 km/h (4 Bft)
08.07.2015 03:06 14,3 C 12,2 C 92 % 15 lf 1008,0 hPa 0,0 l/m 0 min 0 min 0 W/m 25,1 km/h (4 Bft)
08.07.2015 03:08 14,3 C 12,2 C 92 % 15 lf 1007,9 hPa 0,0 l/m 0 min 0 min 0 W/m 23,0 km/h (4 Bft)
08.07.2015 03:10 14,3 C 12,2 C 92 % 15 lf 1008,0 hPa 0,0 l/m 0 min 0 min 0 W/m 25,1 km/h (4 Bft)
08.07.2015 03:12 14,2 C 12,2 C 92 % 15 lf 1007,9 hPa 0,0 l/m 0 min 0 min 0 W/m 27,2 km/h (4 Bft)
08.07.2015 03:14 14,2 C 12,2 C 91 % 15 lf 1008,0 hPa 0,0 l/m 0 min 0 min 0 W/m 23,0 km/h (4 Bft)
08.07.2015 03:16 14,2 C 12,2 C 91 % 15 lf 1008,1 hPa 0,0 l/m 0 min 0 min 0 W/m 29,3 km/h (5 Bft)
08.07.2015 03:18 14,2 C 12,2 C 91 % 15 lf 1008,1 hPa 0,0 l/m 0 min 0 min 0 W/m 20,9 km/h (4 Bft)
08.07.2015 03:20 14,2 C 12,2 C 91 % 15 lf 1008,1 hPa 0,0 l/m 0 min 0 min 0 W/m 31,4 km/h (5 Bft)
08.07.2015 03:22 14,2 C 12,2 C 91 % 15 lf 1008,2 hPa 0,0 l/m 0 min 0 min 0 W/m 23,0 km/h (4 Bft)
08.07.2015 03:24 14,2 C 12,2 C 90 % 15 lf 1008,2 hPa 0,0 l/m 0 min 0 min 0 W/m 25,1 km/h (4 Bft)
08.07.2015 03:26 14,2 C 12,2 C 90 % 15 lf 1008,2 hPa 0,0 l/m 0 min 0 min 0 W/m 25,1 km/h (4 Bft)
08.07.2015 03:28 14,2 C 12,2 C 90 % 15 lf 1008,2 hPa 0,0 l/m 0 min 0 min 0 W/m 23,0 km/h (4 Bft)
08.07.2015 03:30 14,2 C 12,2 C 90 % 15 lf 1008,2 hPa 0,0 l/m 0 min 0 min 0 W/m 25,1 km/h (4 Bft)
08.07.2015 03:32 14,2 C 12,2 C 90 % 15 lf 1008,3 hPa 0,0 l/m 0 min 0 min 0 W/m 23,0 km/h (4 Bft)
08.07.2015 03:34 14,2 C 12,2 C 90 % 15 lf 1008,2 hPa 0,0 l/m 0 min 0 min 0 W/m 27,2 km/h (4 Bft)
08.07.2015 03:36 14,2 C 12,2 C 90 % 15 lf 1008,2 hPa 0,0 l/m 0 min 0 min 0 W/m 25,1 km/h (4 Bft)
08.07.2015 03:38 14,2 C 12,2 C 91 % 15 lf 1008,2 hPa 0,0 l/m 0 min 0 min 0 W/m 18,8 km/h (3 Bft)
08.07.2015 03:40 14,2 C 12,2 C 91 % 15 lf 1008,2 hPa 0,0 l/m 0 min 0 min 0 W/m 25,1 km/h (4 Bft)
08.07.2015 03:42 14,2 C 12,2 C 91 % 15 lf 1008,3 hPa 0,0 l/m 0 min 0 min 0 W/m 25,1 km/h (4 Bft)
08.07.2015 03:44 14,2 C 12,2 C 91 % 14 lf 1008,3 hPa 0,0 l/m 0 min 0 min 0 W/m 31,4 km/h (5 Bft)
08.07.2015 03:46 14,2 C 12,2 C 91 % 14 lf 1008,3 hPa 0,0 l/m 0 min 0 min 0 W/m 29,3 km/h (5 Bft)
08.07.2015 03:48 14,2 C 12,2 C 90 % 13 lf 1008,3 hPa 0,0 l/m 0 min 0 min 0 W/m 27,2 km/h (4 Bft)
08.07.2015 03:50 14,2 C 12,2 C 90 % 12 lf 1008,3 hPa 0,0 l/m 0 min 0 min 0 W/m 23,0 km/h (4 Bft)
08.07.2015 03:52 14,2 C 12,2 C 90 % 10 lf 1008,3 hPa 0,0 l/m 0 min 0 min 0 W/m 18,8 km/h (3 Bft)
08.07.2015 03:54 14,2 C 12,2 C 90 % 5 lf 1008,4 hPa 0,0 l/m 0 min 0 min 0 W/m 20,9 km/h (4 Bft)
08.07.2015 03:56 14,2 C 12,2 C 90 % 4 lf 1008,3 hPa 0,0 l/m 0 min 0 min 0 W/m 20,9 km/h (4 Bft)
08.07.2015 03:58 14,3 C 12,2 C 90 % 2 lf 1008,3 hPa 0,0 l/m 0 min 0 min 0 W/m 31,4 km/h (5 Bft)
08.07.2015 04:00 14,3 C 12,2 C 90 % 1 lf 1008,4 hPa 0,0 l/m 0 min 0 min 0 W/m 14,6 km/h (3 Bft)
08.07.2015 04:02 14,3 C 12,2 C 90 % 1 lf 1008,3 hPa 0,0 l/m 0 min 0 min 0 W/m 23,0 km/h (4 Bft)
08.07.2015 04:04 14,3 C 12,2 C 90 % 1 lf 1008,4 hPa 0,0 l/m 0 min 0 min 0 W/m 16,7 km/h (3 Bft)
08.07.2015 04:06 14,3 C 12,2 C 90 % 1 lf 1008,4 hPa 0,0 l/m 0 min 0 min 0 W/m 18,8 km/h (3 Bft)
08.07.2015 04:08 14,3 C 12,2 C 90 % 1 lf 1008,4 hPa 0,0 l/m 0 min 0 min 0 W/m 18,8 km/h (3 Bft)
08.07.2015 04:10 14,2 C 12,2 C 90 % 0 lf 1008,4 hPa 0,0 l/m 0 min 0 min 0 W/m 25,1 km/h (4 Bft)
08.07.2015 04:12 14,2 C 12,2 C 90 % 0 lf 1008,4 hPa 0,0 l/m 0 min 0 min 0 W/m 23,0 km/h (4 Bft)
08.07.2015 04:14 14,2 C 12,2 C 90 % 0 lf 1008,5 hPa 0,0 l/m 0 min 0 min 0 W/m 23,0 km/h (4 Bft)
08.07.2015 04:16 14,2 C 12,2 C 90 % 0 lf 1008,6 hPa 0,0 l/m 0 min 0 min 0 W/m 18,8 km/h (3 Bft)
08.07.2015 04:18 14,2 C 12,2 C 90 % 0 lf 1008,6 hPa 0,0 l/m 0 min 0 min 0 W/m 25,1 km/h (4 Bft)
08.07.2015 04:20 14,2 C 12,2 C 90 % 0 lf 1008,6 hPa 0,0 l/m 0 min 0 min 0 W/m 23,0 km/h (4 Bft)
08.07.2015 04:22 14,2 C 12,2 C 90 % 0 lf 1008,6 hPa 0,0 l/m 0 min 0 min 0 W/m 27,2 km/h (4 Bft)
08.07.2015 04:24 14,2 C 12,2 C 89 % 0 lf 1008,5 hPa 0,0 l/m 0 min 0 min 0 W/m 27,2 km/h (4 Bft)
08.07.2015 04:26 14,2 C 12,2 C 89 % 0 lf 1008,5 hPa 0,0 l/m 0 min 0 min 0 W/m 31,4 km/h (5 Bft)
08.07.2015 04:28 14,2 C 12,2 C 89 % 0 lf 1008,6 hPa 0,0 l/m 0 min 0 min 0 W/m 25,1 km/h (4 Bft)
08.07.2015 04:30 14,1 C 12,2 C 89 % 0 lf 1008,6 hPa 0,0 l/m 0 min 0 min 0 W/m 20,9 km/h (4 Bft)
08.07.2015 04:32 14,1 C 11,7 C 89 % 0 lf 1008,6 hPa 0,0 l/m 0 min 0 min 0 W/m 25,1 km/h (4 Bft)
08.07.2015 04:34 14,1 C 11,7 C 89 % 0 lf 1008,6 hPa 0,0 l/m 0 min 0 min 0 W/m 23,0 km/h (4 Bft)
08.07.2015 04:36 14,0 C 11,7 C 88 % 0 lf 1008,5 hPa 0,0 l/m 0 min 0 min 0 W/m 29,3 km/h (5 Bft)
08.07.2015 04:38 13,9 C 11,7 C 88 % 0 lf 1008,7 hPa 0,0 l/m 0 min 0 min 0 W/m 18,8 km/h (3 Bft)
08.07.2015 04:40 13,9 C 11,7 C 88 % 0 lf 1008,6 hPa 0,0 l/m 0 min 0 min 0 W/m 23,0 km/h (4 Bft)
08.07.2015 04:42 13,9 C 11,7 C 88 % 0 lf 1008,6 hPa 0,0 l/m 0 min 0 min 0 W/m 25,1 km/h (4 Bft)
08.07.2015 04:44 13,8 C 11,7 C 88 % 0 lf 1008,7 hPa 0,0 l/m 0 min 0 min 0 W/m 23,0 km/h (4 Bft)
08.07.2015 04:46 13,8 C 11,7 C 88 % 0 lf 1008,6 hPa 0,0 l/m 0 min 0 min 0 W/m 23,0 km/h (4 Bft)
08.07.2015 04:48 13,8 C 11,7 C 88 % 0 lf 1008,7 hPa 0,0 l/m 0 min 0 min 0 W/m 16,7 km/h (3 Bft)
08.07.2015 04:50 13,7 C 11,7 C 88 % 0 lf 1008,7 hPa 0,0 l/m 0 min 0 min 0 W/m 23,0 km/h (4 Bft)
08.07.2015 04:52 13,7 C 11,7 C 88 % 0 lf 1008,7 hPa 0,0 l/m 0 min 0 min 0 W/m 20,9 km/h (4 Bft)
08.07.2015 04:54 13,7 C 11,7 C 88 % 0 lf 1008,7 hPa 0,0 l/m 0 min 0 min 0 W/m 14,6 km/h (3 Bft)
08.07.2015 04:56 13,7 C 11,7 C 88 % 0 lf 1008,8 hPa 0,0 l/m 0 min 0 min 0 W/m 27,2 km/h (4 Bft)
08.07.2015 04:58 13,7 C 11,7 C 88 % 0 lf 1008,8 hPa 0,0 l/m 0 min 0 min 0 W/m 25,1 km/h (4 Bft)
08.07.2015 05:00 13,7 C 11,7 C 88 % 0 lf 1008,8 hPa 0,0 l/m 0 min 0 min 0 W/m 23,0 km/h (4 Bft)
08.07.2015 05:02 13,7 C 11,7 C 88 % 0 lf 1008,7 hPa 0,0 l/m 0 min 0 min 0 W/m 23,0 km/h (4 Bft)
08.07.2015 05:04 13,7 C 11,7 C 88 % 0 lf 1008,7 hPa 0,0 l/m 0 min 0 min 0 W/m 27,2 km/h (4 Bft)
08.07.2015 05:06 13,6 C 11,7 C 88 % 0 lf 1008,8 hPa 0,0 l/m 0 min 0 min 0 W/m 20,9 km/h (4 Bft)
08.07.2015 05:08 13,6 C 11,7 C 88 % 0 lf 1008,9 hPa 0,0 l/m 0 min 0 min 0 W/m 25,1 km/h (4 Bft)
08.07.2015 05:10 13,6 C 11,7 C 88 % 0 lf 1008,9 hPa 0,0 l/m 0 min 0 min 0 W/m 20,9 km/h (4 Bft)
08.07.2015 05:12 13,6 C 11,7 C 88 % 0 lf 1008,9 hPa 0,0 l/m 0 min 0 min 0 W/m 27,2 km/h (4 Bft)
08.07.2015 05:14 13,6 C 11,7 C 88 % 0 lf 1009,0 hPa 0,0 l/m 0 min 0 min 0 W/m 18,8 km/h (3 Bft)
08.07.2015 05:16 13,6 C 11,7 C 88 % 0 lf 1009,0 hPa 0,0 l/m 0 min 0 min 0 W/m 23,0 km/h (4 Bft)
08.07.2015 05:18 13,6 C 11,7 C 88 % 0 lf 1009,0 hPa 0,0 l/m 0 min 0 min 0 W/m 18,8 km/h (3 Bft)
08.07.2015 05:20 13,6 C 11,7 C 88 % 0 lf 1009,0 hPa 0,0 l/m 0 min 0 min 0 W/m 20,9 km/h (4 Bft)
08.07.2015 05:22 13,6 C 11,7 C 88 % 0 lf 1009,0 hPa 0,0 l/m 0 min 0 min 0 W/m 20,9 km/h (4 Bft)
08.07.2015 05:24 13,6 C 11,7 C 88 % 0 lf 1009,0 hPa 0,0 l/m 0 min 0 min 0 W/m 23,0 km/h (4 Bft)
08.07.2015 05:26 13,6 C 11,7 C 88 % 0 lf 1009,0 hPa 0,0 l/m 0 min 0 min 0 W/m 25,1 km/h (4 Bft)
08.07.2015 05:28 13,6 C 11,7 C 88 % 0 lf 1008,9 hPa 0,0 l/m 0 min 0 min 0 W/m 25,1 km/h (4 Bft)
08.07.2015 05:30 13,6 C 11,7 C 88 % 0 lf 1009,0 hPa 0,0 l/m 0 min 0 min 4 W/m 23,0 km/h (4 Bft)
08.07.2015 05:32 13,6 C 11,7 C 88 % 0 lf 1009,0 hPa 0,0 l/m 0 min 0 min 5 W/m 23,0 km/h (4 Bft)
08.07.2015 05:34 13,6 C 11,7 C 88 % 0 lf 1008,9 hPa 0,0 l/m 0 min 0 min 5 W/m 20,9 km/h (4 Bft)
08.07.2015 05:36 13,6 C 11,7 C 88 % 0 lf 1009,0 hPa 0,0 l/m 0 min 0 min 6 W/m 20,9 km/h (4 Bft)
08.07.2015 05:38 13,6 C 11,7 C 88 % 0 lf 1009,0 hPa 0,0 l/m 0 min 0 min 7 W/m 16,7 km/h (3 Bft)
08.07.2015 05:40 13,6 C 11,7 C 89 % 0 lf 1009,0 hPa 0,0 l/m 0 min 0 min 8 W/m 23,0 km/h (4 Bft)
08.07.2015 05:42 13,6 C 11,7 C 88 % 0 lf 1009,0 hPa 0,0 l/m 0 min 0 min 9 W/m 18,8 km/h (3 Bft)
08.07.2015 05:44 13,6 C 11,7 C 89 % 0 lf 1009,0 hPa 0,0 l/m 0 min 0 min 10 W/m 12,6 km/h (3 Bft)
08.07.2015 05:46 13,6 C 11,7 C 89 % 0 lf 1009,0 hPa 0,0 l/m 0 min 0 min 11 W/m 16,7 km/h (3 Bft)
08.07.2015 05:48 13,6 C 11,7 C 88 % 0 lf 1009,0 hPa 0,0 l/m 0 min 0 min 12 W/m 27,2 km/h (4 Bft)
08.07.2015 05:50 13,6 C 11,7 C 88 % 0 lf 1009,0 hPa 0,0 l/m 0 min 0 min 13 W/m 27,2 km/h (4 Bft)
08.07.2015 05:52 13,6 C 11,7 C 88 % 0 lf 1009,0 hPa 0,0 l/m 0 min 0 min 14 W/m 25,1 km/h (4 Bft)
08.07.2015 05:54 13,6 C 11,7 C 89 % 0 lf 1009,0 hPa 0,0 l/m 0 min 0 min 16 W/m 18,8 km/h (3 Bft)
08.07.2015 05:56 13,6 C 11,7 C 89 % 0 lf 1009,0 hPa 0,0 l/m 0 min 0 min 17 W/m 25,1 km/h (4 Bft)
08.07.2015 05:58 13,6 C 11,7 C 89 % 0 lf 1009,0 hPa 0,0 l/m 0 min 0 min 18 W/m 18,8 km/h (3 Bft)
08.07.2015 06:00 13,6 C 11,7 C 89 % 0 lf 1008,9 hPa 0,0 l/m 0 min 0 min 19 W/m 29,3 km/h (5 Bft)
08.07.2015 06:02 13,6 C 11,7 C 89 % 0 lf 1008,9 hPa 0,0 l/m 0 min 0 min 21 W/m 27,2 km/h (4 Bft)
08.07.2015 06:06 13,6 C 11,7 C 89 % 0 lf 1008,9 hPa 0,0 l/m 0 min 0 min 22 W/m 23,0 km/h (4 Bft)
08.07.2015 06:08 13,6 C 12,2 C 89 % 0 lf 1009,0 hPa 0,0 l/m 0 min 0 min 21 W/m 25,1 km/h (4 Bft)
08.07.2015 06:10 13,6 C 12,2 C 89 % 0 lf 1008,9 hPa 0,0 l/m 0 min 0 min 24 W/m 23,0 km/h (4 Bft)
08.07.2015 06:12 13,6 C 12,2 C 89 % 0 lf 1009,0 hPa 0,0 l/m 0 min 0 min 25 W/m 23,0 km/h (4 Bft)
08.07.2015 06:14 13,6 C 12,2 C 89 % 0 lf 1009,0 hPa 0,0 l/m 0 min 0 min 27 W/m 23,0 km/h (4 Bft)
08.07.2015 06:16 13,6 C 12,8 C 89 % 0 lf 1009,0 hPa 0,0 l/m 0 min 0 min 30 W/m 18,8 km/h (3 Bft)
08.07.2015 06:18 13,6 C 12,8 C 89 % 0 lf 1009,1 hPa 0,0 l/m 0 min 0 min 32 W/m 29,3 km/h (5 Bft)
08.07.2015 06:20 13,6 C 12,8 C 89 % 0 lf 1009,1 hPa 0,0 l/m 0 min 0 min 33 W/m 18,8 km/h (3 Bft)
08.07.2015 06:22 13,6 C 12,8 C 89 % 0 lf 1009,0 hPa 0,0 l/m 0 min 0 min 33 W/m 20,9 km/h (4 Bft)
08.07.2015 06:24 13,6 C 12,8 C 89 % 0 lf 1009,0 hPa 0,0 l/m 0 min 0 min 31 W/m 29,3 km/h (5 Bft)
08.07.2015 06:26 13,6 C 12,8 C 89 % 0 lf 1009,0 hPa 0,0 l/m 0 min 0 min 30 W/m 20,9 km/h (4 Bft)
08.07.2015 06:28 13,6 C 12,8 C 89 % 0 lf 1009,1 hPa 0,0 l/m 0 min 0 min 34 W/m 18,8 km/h (3 Bft)
08.07.2015 06:30 13,6 C 12,8 C 89 % 0 lf 1009,0 hPa 0,0 l/m 0 min 0 min 35 W/m 23,0 km/h (4 Bft)
08.07.2015 06:32 13,6 C 12,8 C 89 % 0 lf 1009,1 hPa 0,0 l/m 0 min 0 min 40 W/m 14,6 km/h (3 Bft)
08.07.2015 06:34 13,7 C 12,8 C 89 % 0 lf 1009,1 hPa 0,0 l/m 0 min 0 min 44 W/m 27,2 km/h (4 Bft)
08.07.2015 06:36 13,7 C 12,8 C 89 % 0 lf 1009,0 hPa 0,0 l/m 0 min 0 min 55 W/m 39,7 km/h (6 Bft)
08.07.2015 06:38 13,7 C 12,8 C 89 % 0 lf 1009,1 hPa 0,0 l/m 0 min 0 min 53 W/m 27,2 km/h (4 Bft)
08.07.2015 06:40 13,7 C 12,8 C 89 % 0 lf 1009,1 hPa 0,0 l/m 0 min 0 min 51 W/m 27,2 km/h (4 Bft)
08.07.2015 06:42 13,7 C 12,8 C 89 % 0 lf 1009,1 hPa 0,0 l/m 0 min 0 min 59 W/m 25,1 km/h (4 Bft)
08.07.2015 06:44 13,7 C 12,8 C 89 % 0 lf 1009,1 hPa 0,0 l/m 0 min 0 min 73 W/m 23,0 km/h (4 Bft)
08.07.2015 06:46 13,7 C 12,8 C 89 % 0 lf 1009,1 hPa 0,0 l/m 0 min 0 min 78 W/m 25,1 km/h (4 Bft)
08.07.2015 06:48 13,7 C 12,8 C 89 % 0 lf 1009,1 hPa 0,0 l/m 0 min 0 min 75 W/m 29,3 km/h (5 Bft)
08.07.2015 06:50 13,7 C 12,8 C 88 % 0 lf 1009,1 hPa 0,0 l/m 0 min 0 min 82 W/m 27,2 km/h (4 Bft)
08.07.2015 06:52 13,8 C 12,8 C 88 % 0 lf 1009,1 hPa 0,0 l/m 0 min 0 min 81 W/m 27,2 km/h (4 Bft)
08.07.2015 06:54 13,8 C 12,8 C 88 % 0 lf 1009,1 hPa 0,0 l/m 2 min 0 min 94 W/m 29,3 km/h (5 Bft)
08.07.2015 06:56 13,8 C 12,8 C 88 % 0 lf 1009,1 hPa 0,0 l/m 0 min 0 min 75 W/m 31,4 km/h (5 Bft)
08.07.2015 06:58 13,9 C 12,8 C 88 % 0 lf 1009,2 hPa 0,0 l/m 0 min 0 min 81 W/m 29,3 km/h (5 Bft)
08.07.2015 07:00 13,9 C 13,3 C 88 % 0 lf 1009,2 hPa 0,0 l/m 0 min 0 min 84 W/m 23,0 km/h (4 Bft)
08.07.2015 07:02 13,9 C 13,3 C 88 % 0 lf 1009,2 hPa 0,0 l/m 2 min 0 min 111 W/m 25,1 km/h (4 Bft)
08.07.2015 07:04 14,0 C 13,3 C 88 % 0 lf 1009,1 hPa 0,0 l/m 2 min 0 min 117 W/m 29,3 km/h (5 Bft)
08.07.2015 07:06 14,1 C 13,3 C 88 % 0 lf 1009,1 hPa 0,0 l/m 0 min 0 min 78 W/m 18,8 km/h (3 Bft)
08.07.2015 07:08 14,1 C 13,3 C 88 % 0 lf 1009,1 hPa 0,0 l/m 0 min 0 min 94 W/m 20,9 km/h (4 Bft)
08.07.2015 07:10 14,1 C 13,3 C 88 % 0 lf 1009,1 hPa 0,0 l/m 0 min 0 min 95 W/m 23,0 km/h (4 Bft)
08.07.2015 07:12 14,1 C 13,3 C 88 % 0 lf 1009,2 hPa 0,0 l/m 0 min 0 min 102 W/m 25,1 km/h (4 Bft)
08.07.2015 07:14 14,1 C 13,3 C 87 % 0 lf 1009,2 hPa 0,0 l/m 0 min 0 min 110 W/m 25,1 km/h (4 Bft)
08.07.2015 07:16 14,2 C 13,3 C 87 % 0 lf 1009,2 hPa 0,0 l/m 2 min 0 min 116 W/m 29,3 km/h (5 Bft)
08.07.2015 07:18 14,2 C 13,3 C 87 % 0 lf 1009,1 hPa 0,0 l/m 2 min 0 min 131 W/m 39,7 km/h (6 Bft)
08.07.2015 07:20 14,2 C 13,3 C 87 % 0 lf 1009,2 hPa 0,0 l/m 2 min 0 min 210 W/m 29,3 km/h (5 Bft)
08.07.2015 07:22 14,2 C 13,3 C 87 % 0 lf 1009,1 hPa 0,0 l/m 2 min 0 min 267 W/m 20,9 km/h (4 Bft)
08.07.2015 07:24 14,2 C 13,3 C 87 % 0 lf 1009,2 hPa 0,0 l/m 2 min 0 min 138 W/m 27,2 km/h (4 Bft)
08.07.2015 07:26 14,2 C 13,3 C 87 % 0 lf 1009,2 hPa 0,0 l/m 0 min 0 min 124 W/m 27,2 km/h (4 Bft)
08.07.2015 07:28 14,2 C 13,3 C 87 % 0 lf 1009,2 hPa 0,0 l/m 0 min 0 min 112 W/m 29,3 km/h (5 Bft)
08.07.2015 07:30 14,2 C 13,3 C 87 % 0 lf 1009,2 hPa 0,0 l/m 0 min 0 min 100 W/m 25,1 km/h (4 Bft)
08.07.2015 07:32 14,2 C 13,3 C 86 % 0 lf 1009,2 hPa 0,0 l/m 0 min 0 min 89 W/m 16,7 km/h (3 Bft)
08.07.2015 07:34 14,2 C 13,3 C 86 % 0 lf 1009,2 hPa 0,0 l/m 0 min 0 min 75 W/m 29,3 km/h (5 Bft)
08.07.2015 07:36 14,2 C 13,3 C 86 % 0 lf 1009,2 hPa 0,0 l/m 0 min 0 min 63 W/m 27,2 km/h (4 Bft)
08.07.2015 07:38 14,2 C 12,8 C 86 % 0 lf 1009,2 hPa 0,0 l/m 0 min 0 min 55 W/m 29,3 km/h (5 Bft)
08.07.2015 07:40 14,2 C 12,8 C 86 % 0 lf 1009,2 hPa 0,0 l/m 0 min 0 min 97 W/m 25,1 km/h (4 Bft)
08.07.2015 07:42 14,1 C 12,8 C 86 % 0 lf 1009,3 hPa 0,0 l/m 0 min 0 min 127 W/m 16,7 km/h (3 Bft)
08.07.2015 07:44 14,1 C 13,3 C 87 % 0 lf 1009,2 hPa 0,0 l/m 2 min 0 min 279 W/m 23,0 km/h (4 Bft)
08.07.2015 07:46 14,2 C 13,3 C 87 % 0 lf 1009,2 hPa 0,0 l/m 2 min 0 min 322 W/m 25,1 km/h (4 Bft)
08.07.2015 07:48 14,2 C 13,3 C 87 % 0 lf 1009,2 hPa 0,0 l/m 2 min 0 min 361 W/m 25,1 km/h (4 Bft)
08.07.2015 07:50 14,2 C 13,9 C 87 % 0 lf 1009,2 hPa 0,0 l/m 2 min 0 min 250 W/m 39,7 km/h (6 Bft)
08.07.2015 07:52 14,2 C 13,9 C 87 % 0 lf 1009,1 hPa 0,0 l/m 2 min 0 min 197 W/m 37,7 km/h (5 Bft)
08.07.2015 07:54 14,4 C 13,9 C 87 % 0 lf 1009,2 hPa 0,0 l/m 2 min 0 min 169 W/m 25,1 km/h (4 Bft)
08.07.2015 07:56 14,4 C 13,9 C 86 % 0 lf 1009,2 hPa 0,0 l/m 0 min 0 min 160 W/m 29,3 km/h (5 Bft)
08.07.2015 07:58 14,5 C 13,9 C 86 % 0 lf 1009,3 hPa 0,0 l/m 2 min 0 min 187 W/m 20,9 km/h (4 Bft)
08.07.2015 08:00 14,6 C 13,9 C 86 % 0 lf 1009,3 hPa 0,0 l/m 2 min 0 min 178 W/m 27,2 km/h (4 Bft)
08.07.2015 08:02 14,6 C 13,9 C 86 % 0 lf 1009,3 hPa 0,0 l/m 2 min 0 min 201 W/m 37,7 km/h (5 Bft)
08.07.2015 08:04 14,7 C 14,4 C 86 % 0 lf 1009,3 hPa 0,0 l/m 2 min 0 min 244 W/m 23,0 km/h (4 Bft)
08.07.2015 08:06 14,8 C 14,4 C 85 % 0 lf 1009,3 hPa 0,0 l/m 2 min 0 min 242 W/m 20,9 km/h (4 Bft)
08.07.2015 08:08 14,8 C 14,4 C 85 % 0 lf 1009,4 hPa 0,0 l/m 2 min 0 min 188 W/m 23,0 km/h (4 Bft)
08.07.2015 08:10 14,8 C 14,4 C 85 % 0 lf 1009,3 hPa 0,0 l/m 0 min 0 min 159 W/m 27,2 km/h (4 Bft)
08.07.2015 08:12 14,8 C 14,4 C 85 % 0 lf 1009,3 hPa 0,0 l/m 0 min 0 min 171 W/m 27,2 km/h (4 Bft)
08.07.2015 08:14 14,8 C 14,4 C 84 % 0 lf 1009,3 hPa 0,0 l/m 2 min 0 min 200 W/m 33,5 km/h (5 Bft)
08.07.2015 08:16 14,8 C 14,4 C 84 % 0 lf 1009,4 hPa 0,0 l/m 2 min 0 min 189 W/m 27,2 km/h (4 Bft)
08.07.2015 08:18 14,8 C 14,4 C 84 % 0 lf 1009,4 hPa 0,0 l/m 2 min 0 min 201 W/m 25,1 km/h (4 Bft)
08.07.2015 08:20 14,8 C 14,4 C 84 % 0 lf 1009,4 hPa 0,0 l/m 2 min 0 min 214 W/m 20,9 km/h (4 Bft)
08.07.2015 08:22 14,9 C 14,4 C 85 % 0 lf 1009,4 hPa 0,0 l/m 2 min 0 min 201 W/m 16,7 km/h (3 Bft)
08.07.2015 08:24 15,0 C 14,4 C 84 % 0 lf 1009,4 hPa 0,0 l/m 0 min 0 min 195 W/m 23,0 km/h (4 Bft)
08.07.2015 08:26 15,0 C 14,4 C 84 % 0 lf 1009,4 hPa 0,0 l/m 2 min 0 min 210 W/m 29,3 km/h (5 Bft)
08.07.2015 08:28 15,0 C 14,4 C 84 % 0 lf 1009,5 hPa 0,0 l/m 0 min 0 min 170 W/m 23,0 km/h (4 Bft)
08.07.2015 08:30 15,0 C 14,4 C 84 % 0 lf 1009,6 hPa 0,0 l/m 0 min 0 min 182 W/m 25,1 km/h (4 Bft)
08.07.2015 08:32 15,0 C 14,4 C 84 % 0 lf 1009,5 hPa 0,0 l/m 0 min 0 min 176 W/m 25,1 km/h (4 Bft)
08.07.2015 08:34 15,1 C 15,0 C 84 % 0 lf 1009,6 hPa 0,0 l/m 0 min 0 min 188 W/m 14,6 km/h (3 Bft)
08.07.2015 08:36 15,2 C 15,0 C 84 % 0 lf 1009,5 hPa 0,0 l/m 0 min 0 min 178 W/m 18,8 km/h (3 Bft)
08.07.2015 08:38 15,2 C 15,0 C 84 % 0 lf 1009,5 hPa 0,0 l/m 0 min 0 min 170 W/m 27,2 km/h (4 Bft)
08.07.2015 08:40 15,2 C 15,0 C 84 % 0 lf 1009,5 hPa 0,0 l/m 0 min 0 min 206 W/m 16,7 km/h (3 Bft)
08.07.2015 08:42 15,3 C 15,0 C 84 % 0 lf 1009,5 hPa 0,0 l/m 0 min 0 min 218 W/m 27,2 km/h (4 Bft)
08.07.2015 08:44 15,3 C 15,0 C 83 % 0 lf 1009,5 hPa 0,0 l/m 0 min 0 min 201 W/m 33,5 km/h (5 Bft)
08.07.2015 08:46 15,3 C 15,0 C 83 % 0 lf 1009,5 hPa 0,0 l/m 0 min 0 min 208 W/m 29,3 km/h (5 Bft)
08.07.2015 08:48 15,3 C 15,0 C 83 % 0 lf 1009,5 hPa 0,0 l/m 0 min 0 min 201 W/m 25,1 km/h (4 Bft)
08.07.2015 08:50 15,3 C 15,0 C 83 % 0 lf 1009,5 hPa 0,0 l/m 0 min 0 min 192 W/m 31,4 km/h (5 Bft)
08.07.2015 08:52 15,4 C 15,0 C 83 % 0 lf 1009,6 hPa 0,0 l/m 0 min 0 min 176 W/m 20,9 km/h (4 Bft)
08.07.2015 08:54 15,4 C 15,0 C 83 % 0 lf 1009,7 hPa 0,0 l/m 0 min 0 min 160 W/m 25,1 km/h (4 Bft)
08.07.2015 08:56 15,4 C 15,0 C 83 % 0 lf 1009,6 hPa 0,0 l/m 0 min 0 min 173 W/m 23,0 km/h (4 Bft)
08.07.2015 08:58 15,4 C 15,0 C 83 % 0 lf 1009,6 hPa 0,0 l/m 0 min 0 min 180 W/m 29,3 km/h (5 Bft)
08.07.2015 09:00 15,4 C 15,0 C 83 % 0 lf 1009,6 hPa 0,0 l/m 0 min 0 min 224 W/m 23,0 km/h (4 Bft)
08.07.2015 09:02 15,4 C 15,0 C 82 % 0 lf 1009,5 hPa 0,0 l/m 2 min 0 min 256 W/m 29,3 km/h (5 Bft)
08.07.2015 09:04 15,5 C 15,0 C 82 % 0 lf 1009,5 hPa 0,0 l/m 2 min 0 min 286 W/m 29,3 km/h (5 Bft)
08.07.2015 09:06 15,6 C 15,6 C 82 % 0 lf 1009,5 hPa 0,0 l/m 2 min 0 min 298 W/m 18,8 km/h (3 Bft)
08.07.2015 09:08 15,7 C 15,6 C 82 % 0 lf 1009,6 hPa 0,0 l/m 2 min 0 min 334 W/m 33,5 km/h (5 Bft)
08.07.2015 09:10 15,8 C 15,6 C 81 % 0 lf 1009,6 hPa 0,0 l/m 2 min 0 min 287 W/m 27,2 km/h (4 Bft)
08.07.2015 09:12 15,8 C 15,6 C 81 % 0 lf 1009,5 hPa 0,0 l/m 0 min 0 min 221 W/m 31,4 km/h (5 Bft)
08.07.2015 09:14 15,8 C 15,6 C 81 % 0 lf 1009,5 hPa 0,0 l/m 0 min 0 min 247 W/m 33,5 km/h (5 Bft)
08.07.2015 09:16 15,9 C 15,6 C 80 % 0 lf 1009,5 hPa 0,0 l/m 2 min 0 min 277 W/m 31,4 km/h (5 Bft)
08.07.2015 09:18 15,9 C 15,6 C 80 % 0 lf 1009,5 hPa 0,0 l/m 2 min 0 min 314 W/m 27,2 km/h (4 Bft)
08.07.2015 09:20 16,0 C 15,6 C 80 % 0 lf 1009,5 hPa 0,0 l/m 2 min 0 min 268 W/m 25,1 km/h (4 Bft)
08.07.2015 09:22 16,1 C 15,6 C 81 % 0 lf 1009,5 hPa 0,0 l/m 0 min 0 min 253 W/m 23,0 km/h (4 Bft)
08.07.2015 09:24 16,1 C 15,6 C 80 % 0 lf 1009,6 hPa 0,0 l/m 0 min 0 min 263 W/m 35,6 km/h (5 Bft)
08.07.2015 09:26 16,1 C 16,1 C 80 % 0 lf 1009,5 hPa 0,0 l/m 2 min 0 min 292 W/m 33,5 km/h (5 Bft)
08.07.2015 09:28 16,2 C 16,1 C 80 % 0 lf 1009,6 hPa 0,0 l/m 2 min 0 min 325 W/m 27,2 km/h (4 Bft)
08.07.2015 09:30 16,2 C 16,1 C 80 % 0 lf 1009,6 hPa 0,0 l/m 2 min 0 min 377 W/m 35,6 km/h (5 Bft)
08.07.2015 09:32 16,3 C 16,7 C 80 % 0 lf 1009,5 hPa 0,0 l/m 2 min 0 min 433 W/m 27,2 km/h (4 Bft)
08.07.2015 09:34 16,4 C 16,7 C 80 % 0 lf 1009,5 hPa 0,0 l/m 2 min 0 min 306 W/m 23,0 km/h (4 Bft)
08.07.2015 09:36 16,4 C 16,1 C 79 % 0 lf 1009,5 hPa 0,0 l/m 0 min 0 min 270 W/m 35,6 km/h (5 Bft)
08.07.2015 09:38 16,4 C 15,6 C 78 % 0 lf 1009,5 hPa 0,0 l/m 0 min 0 min 221 W/m 39,7 km/h (6 Bft)
08.07.2015 09:40 16,3 C 15,6 C 78 % 0 lf 1009,6 hPa 0,0 l/m 0 min 0 min 194 W/m 27,2 km/h (4 Bft)
08.07.2015 09:42 16,2 C 15,6 C 79 % 0 lf 1009,6 hPa 0,0 l/m 0 min 0 min 233 W/m 16,7 km/h (3 Bft)
08.07.2015 09:44 16,3 C 16,1 C 79 % 0 lf 1009,5 hPa 0,0 l/m 0 min 0 min 275 W/m 18,8 km/h (3 Bft)
08.07.2015 09:46 16,4 C 16,1 C 79 % 0 lf 1009,5 hPa 0,0 l/m 2 min 0 min 308 W/m 33,5 km/h (5 Bft)
08.07.2015 09:48 16,4 C 16,1 C 79 % 0 lf 1009,7 hPa 0,0 l/m 2 min 0 min 311 W/m 27,2 km/h (4 Bft)
08.07.2015 09:50 16,5 C 16,7 C 79 % 0 lf 1009,6 hPa 0,0 l/m 2 min 0 min 379 W/m 27,2 km/h (4 Bft)
08.07.2015 09:52 16,6 C 16,7 C 79 % 0 lf 1009,7 hPa 0,0 l/m 2 min 0 min 362 W/m 27,2 km/h (4 Bft)
08.07.2015 09:54 16,7 C 16,7 C 78 % 0 lf 1009,5 hPa 0,0 l/m 2 min 0 min 345 W/m 31,4 km/h (5 Bft)
08.07.2015 09:56 16,7 C 16,1 C 78 % 0 lf 1009,7 hPa 0,0 l/m 0 min 0 min 205 W/m 35,6 km/h (5 Bft)
08.07.2015 09:58 16,6 C 16,1 C 78 % 0 lf 1009,6 hPa 0,0 l/m 0 min 0 min 177 W/m 39,7 km/h (6 Bft)
08.07.2015 10:00 16,5 C 16,1 C 79 % 0 lf 1009,6 hPa 0,0 l/m 0 min 0 min 293 W/m 29,3 km/h (5 Bft)
08.07.2015 10:02 16,6 C 16,7 C 79 % 0 lf 1009,7 hPa 0,0 l/m 2 min 0 min 392 W/m 23,0 km/h (4 Bft)
08.07.2015 10:04 16,7 C 16,7 C 79 % 0 lf 1009,7 hPa 0,0 l/m 2 min 0 min 330 W/m 29,3 km/h (5 Bft)
08.07.2015 10:06 16,8 C 16,7 C 79 % 0 lf 1009,6 hPa 0,0 l/m 2 min 0 min 393 W/m 33,5 km/h (5 Bft)
08.07.2015 10:08 16,8 C 17,2 C 78 % 0 lf 1009,6 hPa 0,0 l/m 2 min 0 min 435 W/m 35,6 km/h (5 Bft)
08.07.2015 10:10 16,9 C 17,2 C 78 % 0 lf 1009,5 hPa 0,0 l/m 2 min 0 min 489 W/m 33,5 km/h (5 Bft)
08.07.2015 10:12 17,0 C 17,2 C 77 % 0 lf 1009,6 hPa 0,0 l/m 2 min 0 min 490 W/m 35,6 km/h (5 Bft)
08.07.2015 10:14 17,0 C 17,2 C 77 % 0 lf 1009,6 hPa 0,0 l/m 2 min 0 min 428 W/m 41,8 km/h (6 Bft)
08.07.2015 10:16 17,0 C 17,8 C 77 % 0 lf 1009,5 hPa 0,0 l/m 2 min 0 min 488 W/m 25,1 km/h (4 Bft)
08.07.2015 10:18 17,1 C 17,2 C 77 % 0 lf 1009,5 hPa 0,0 l/m 2 min 0 min 473 W/m 43,9 km/h (6 Bft)
08.07.2015 10:20 17,1 C 17,2 C 76 % 0 lf 1009,6 hPa 0,0 l/m 2 min 0 min 442 W/m 39,7 km/h (6 Bft)
08.07.2015 10:22 17,2 C 17,2 C 76 % 0 lf 1009,5 hPa 0,0 l/m 2 min 0 min 412 W/m 31,4 km/h (5 Bft)
08.07.2015 10:24 17,2 C 17,2 C 76 % 0 lf 1009,6 hPa 0,0 l/m 2 min 0 min 393 W/m 33,5 km/h (5 Bft)
08.07.2015 10:26 17,3 C 18,3 C 77 % 0 lf 1009,6 hPa 0,0 l/m 2 min 0 min 343 W/m 37,7 km/h (5 Bft)
08.07.2015 10:28 17,4 C 18,3 C 76 % 0 lf 1009,7 hPa 0,0 l/m 2 min 0 min 343 W/m 33,5 km/h (5 Bft)
08.07.2015 10:30 17,6 C 18,9 C 76 % 0 lf 1009,7 hPa 0,0 l/m 2 min 0 min 343 W/m 39,7 km/h (6 Bft)
08.07.2015 10:32 17,6 C 18,3 C 74 % 0 lf 1009,6 hPa 0,0 l/m 2 min 0 min 343 W/m 39,7 km/h (6 Bft)
08.07.2015 10:34 17,6 C 18,9 C 74 % 0 lf 1009,5 hPa 0,0 l/m 2 min 0 min 367 W/m 37,7 km/h (5 Bft)
08.07.2015 10:36 17,7 C 18,9 C 74 % 0 lf 1009,6 hPa 0,0 l/m 2 min 0 min 556 W/m 31,4 km/h (5 Bft)
08.07.2015 10:38 17,8 C 18,9 C 75 % 0 lf 1009,7 hPa 0,0 l/m 2 min 0 min 522 W/m 25,1 km/h (4 Bft)
08.07.2015 10:40 17,9 C 18,9 C 74 % 0 lf 1009,7 hPa 0,0 l/m 2 min 0 min 515 W/m 33,5 km/h (5 Bft)
08.07.2015 10:42 17,9 C 18,3 C 74 % 0 lf 1009,7 hPa 0,0 l/m 2 min 0 min 508 W/m 41,8 km/h (6 Bft)
08.07.2015 10:44 17,8 C 18,9 C 73 % 0 lf 1009,5 hPa 0,0 l/m 2 min 0 min 508 W/m 35,6 km/h (5 Bft)
08.07.2015 10:46 17,7 C 18,3 C 73 % 0 lf 1009,6 hPa 0,0 l/m 2 min 0 min 469 W/m 41,8 km/h (6 Bft)
08.07.2015 10:48 17,6 C 17,8 C 73 % 0 lf 1009,7 hPa 0,0 l/m 0 min 0 min 343 W/m 37,7 km/h (5 Bft)
08.07.2015 10:50 17,6 C 17,8 C 72 % 0 lf 1009,6 hPa 0,0 l/m 0 min 0 min 339 W/m 43,9 km/h (6 Bft)
08.07.2015 10:52 17,6 C 18,3 C 72 % 0 lf 1009,6 hPa 0,0 l/m 0 min 0 min 339 W/m 46,0 km/h (6 Bft)
08.07.2015 10:54 17,6 C 18,3 C 72 % 0 lf 1009,4 hPa 0,0 l/m 0 min 0 min 351 W/m 41,8 km/h (6 Bft)
08.07.2015 10:56 17,8 C 20,0 C 75 % 0 lf 1009,4 hPa 0,0 l/m 2 min 0 min 608 W/m 33,5 km/h (5 Bft)
08.07.2015 10:58 18,2 C 21,1 C 74 % 0 lf 1009,4 hPa 0,0 l/m 2 min 0 min 1144 W/m 27,2 km/h (4 Bft)
08.07.2015 11:00 18,6 C 21,1 C 73 % 0 lf 1009,4 hPa 0,0 l/m 2 min 0 min 771 W/m 31,4 km/h (5 Bft)
08.07.2015 11:02 18,8 C 21,7 C 71 % 0 lf 1009,4 hPa 0,0 l/m 2 min 0 min 1172 W/m 41,8 km/h (6 Bft)
08.07.2015 11:04 19,0 C 20,6 C 71 % 0 lf 1009,4 hPa 0,0 l/m 2 min 0 min 1183 W/m 27,2 km/h (4 Bft)
08.07.2015 11:06 18,9 C 19,4 C 71 % 0 lf 1009,5 hPa 0,0 l/m 0 min 0 min 316 W/m 31,4 km/h (5 Bft)
08.07.2015 11:08 18,7 C 18,3 C 70 % 0 lf 1009,5 hPa 0,0 l/m 0 min 0 min 306 W/m 41,8 km/h (6 Bft)
08.07.2015 11:10 18,5 C 18,9 C 70 % 0 lf 1009,5 hPa 0,0 l/m 2 min 0 min 489 W/m 46,0 km/h (6 Bft)
08.07.2015 11:12 18,3 C 18,9 C 70 % 0 lf 1009,5 hPa 0,0 l/m 2 min 0 min 596 W/m 29,3 km/h (5 Bft)
08.07.2015 11:14 18,3 C 18,9 C 70 % 0 lf 1009,7 hPa 0,0 l/m 2 min 0 min 555 W/m 41,8 km/h (6 Bft)
08.07.2015 11:16 18,2 C 18,3 C 70 % 0 lf 1009,5 hPa 0,0 l/m 2 min 0 min 396 W/m 39,7 km/h (6 Bft)
08.07.2015 11:18 18,2 C 18,9 C 71 % 0 lf 1009,6 hPa 0,0 l/m 2 min 0 min 374 W/m 33,5 km/h (5 Bft)
08.07.2015 11:20 18,2 C 18,9 C 71 % 0 lf 1009,5 hPa 0,0 l/m 2 min 0 min 444 W/m 39,7 km/h (6 Bft)
08.07.2015 11:22 18,3 C 18,9 C 71 % 0 lf 1009,5 hPa 0,0 l/m 2 min 0 min 426 W/m 41,8 km/h (6 Bft)
08.07.2015 11:24 18,3 C 18,3 C 71 % 0 lf 1009,6 hPa 0,0 l/m 0 min 0 min 292 W/m 23,0 km/h (4 Bft)
08.07.2015 11:26 18,2 C 17,8 C 72 % 0 lf 1009,5 hPa 0,0 l/m 0 min 0 min 203 W/m 31,4 km/h (5 Bft)
08.07.2015 11:28 18,1 C 17,2 C 72 % 0 lf 1009,6 hPa 0,0 l/m 0 min 0 min 212 W/m 37,7 km/h (5 Bft)
08.07.2015 11:30 18,0 C 17,2 C 70 % 0 lf 1009,7 hPa 0,0 l/m 0 min 0 min 229 W/m 41,8 km/h (6 Bft)
08.07.2015 11:32 17,8 C 16,7 C 70 % 0 lf 1009,7 hPa 0,0 l/m 0 min 0 min 208 W/m 43,9 km/h (6 Bft)
08.07.2015 11:34 17,7 C 16,7 C 70 % 0 lf 1009,6 hPa 0,0 l/m 0 min 0 min 216 W/m 29,3 km/h (5 Bft)
08.07.2015 11:36 17,7 C 17,2 C 71 % 0 lf 1009,6 hPa 0,0 l/m 0 min 0 min 215 W/m 43,9 km/h (6 Bft)
08.07.2015 11:38 17,6 C 17,2 C 71 % 0 lf 1009,8 hPa 0,0 l/m 0 min 0 min 252 W/m 31,4 km/h (5 Bft)
08.07.2015 11:40 17,7 C 17,2 C 72 % 0 lf 1009,7 hPa 0,0 l/m 0 min 0 min 285 W/m 37,7 km/h (5 Bft)
08.07.2015 11:42 17,7 C 17,2 C 71 % 0 lf 1009,8 hPa 0,0 l/m 0 min 0 min 227 W/m 23,0 km/h (4 Bft)
08.07.2015 11:44 17,7 C 17,2 C 73 % 0 lf 1009,8 hPa 0,0 l/m 0 min 0 min 311 W/m 23,0 km/h (4 Bft)
08.07.2015 11:46 17,8 C 17,8 C 73 % 0 lf 1009,7 hPa 0,0 l/m 2 min 0 min 402 W/m 33,5 km/h (5 Bft)
08.07.2015 11:48 18,1 C 18,3 C 73 % 0 lf 1009,7 hPa 0,0 l/m 2 min 0 min 432 W/m 31,4 km/h (5 Bft)
08.07.2015 11:50 18,1 C 18,3 C 72 % 0 lf 1009,7 hPa 0,0 l/m 2 min 0 min 425 W/m 20,9 km/h (4 Bft)
08.07.2015 11:52 18,3 C 18,3 C 72 % 0 lf 1009,7 hPa 0,0 l/m 0 min 0 min 351 W/m 33,5 km/h (5 Bft)
08.07.2015 11:54 18,3 C 17,8 C 70 % 0 lf 1009,6 hPa 0,0 l/m 0 min 2 min 221 W/m 39,7 km/h (6 Bft)
08.07.2015 11:56 18,2 C 17,2 C 70 % 1 lf 1009,7 hPa 0,0 l/m 0 min 2 min 147 W/m 37,7 km/h (5 Bft)
08.07.2015 11:58 18,0 C 16,7 C 70 % 1 lf 1009,7 hPa 0,0 l/m 0 min 2 min 126 W/m 39,7 km/h (6 Bft)
08.07.2015 12:00 17,8 C 16,7 C 70 % 0 lf 1009,8 hPa 0,0 l/m 0 min 2 min 215 W/m 37,7 km/h (5 Bft)
08.07.2015 12:02 17,7 C 17,2 C 70 % 0 lf 1009,7 hPa 0,0 l/m 0 min 0 min 290 W/m 37,7 km/h (5 Bft)
08.07.2015 12:05 17,8 C 17,8 C 71 % 0 lf 1009,8 hPa 0,0 l/m 0 min 0 min 394 W/m 52,3 km/h (7 Bft)
08.07.2015 12:06 17,8 C 17,8 C 70 % 0 lf 1009,6 hPa 0,0 l/m 0 min 0 min 383 W/m 52,3 km/h (7 Bft)
08.07.2015 12:08 17,9 C 17,8 C 71 % 0 lf 1009,7 hPa 0,0 l/m 0 min 2 min 379 W/m 41,8 km/h (6 Bft)
08.07.2015 12:10 18,1 C 18,3 C 70 % 0 lf 1009,8 hPa 0,0 l/m 2 min 0 min 436 W/m 35,6 km/h (5 Bft)
08.07.2015 12:12 18,2 C 18,3 C 70 % 0 lf 1009,8 hPa 0,0 l/m 2 min 0 min 413 W/m 37,7 km/h (5 Bft)
08.07.2015 12:14 18,4 C 18,9 C 69 % 0 lf 1009,8 hPa 0,0 l/m 2 min 0 min 404 W/m 37,7 km/h (5 Bft)
08.07.2015 12:16 18,5 C 18,3 C 68 % 0 lf 1009,8 hPa 0,0 l/m 2 min 0 min 420 W/m 37,7 km/h (5 Bft)
08.07.2015 12:18 18,6 C 19,4 C 68 % 0 lf 1009,7 hPa 0,0 l/m 2 min 0 min 557 W/m 29,3 km/h (5 Bft)
08.07.2015 12:20 18,7 C 19,4 C 68 % 0 lf 1009,7 hPa 0,0 l/m 2 min 0 min 564 W/m 39,7 km/h (6 Bft)
08.07.2015 12:22 18,8 C 18,9 C 66 % 0 lf 1009,8 hPa 0,0 l/m 0 min 0 min 401 W/m 54,4 km/h (7 Bft)
08.07.2015 12:24 18,8 C 18,3 C 67 % 0 lf 1009,8 hPa 0,0 l/m 0 min 0 min 333 W/m 39,7 km/h (6 Bft)
08.07.2015 12:26 18,7 C 18,3 C 67 % 0 lf 1009,8 hPa 0,0 l/m 0 min 0 min 375 W/m 31,4 km/h (5 Bft)
08.07.2015 12:28 18,8 C 18,9 C 68 % 0 lf 1009,7 hPa 0,0 l/m 2 min 0 min 459 W/m 33,5 km/h (5 Bft)
08.07.2015 12:30 18,8 C 18,9 C 67 % 0 lf 1009,8 hPa 0,0 l/m 2 min 0 min 475 W/m 43,9 km/h (6 Bft)
08.07.2015 12:32 18,8 C 18,9 C 68 % 0 lf 1009,7 hPa 0,0 l/m 2 min 0 min 451 W/m 43,9 km/h (6 Bft)
08.07.2015 12:34 18,9 C 19,4 C 68 % 0 lf 1009,7 hPa 0,0 l/m 2 min 0 min 466 W/m 31,4 km/h (5 Bft)
08.07.2015 12:36 18,9 C 19,4 C 68 % 0 lf 1009,7 hPa 0,0 l/m 2 min 0 min 538 W/m 41,8 km/h (6 Bft)
08.07.2015 12:38 18,9 C 18,9 C 68 % 0 lf 1009,8 hPa 0,0 l/m 2 min 0 min 428 W/m 33,5 km/h (5 Bft)
08.07.2015 12:40 18,8 C 18,9 C 67 % 0 lf 1009,8 hPa 0,0 l/m 2 min 0 min 433 W/m 35,6 km/h (5 Bft)
08.07.2015 12:42 18,8 C 18,9 C 67 % 0 lf 1009,7 hPa 0,0 l/m 0 min 0 min 397 W/m 46,0 km/h (6 Bft)
08.07.2015 12:44 18,8 C 18,9 C 68 % 0 lf 1009,8 hPa 0,0 l/m 0 min 0 min 348 W/m 27,2 km/h (4 Bft)
08.07.2015 12:46 18,7 C 18,9 C 68 % 0 lf 1009,8 hPa 0,0 l/m 0 min 0 min 365 W/m 37,7 km/h (5 Bft)
08.07.2015 12:48 18,8 C 18,9 C 68 % 0 lf 1009,7 hPa 0,0 l/m 2 min 0 min 546 W/m 43,9 km/h (6 Bft)
08.07.2015 12:50 18,8 C 18,9 C 68 % 0 lf 1009,7 hPa 0,0 l/m 0 min 0 min 380 W/m 46,0 km/h (6 Bft)
08.07.2015 12:52 18,8 C 18,9 C 68 % 0 lf 1009,8 hPa 0,0 l/m 0 min 0 min 381 W/m 37,7 km/h (5 Bft)
08.07.2015 12:54 18,8 C 18,9 C 69 % 0 lf 1009,7 hPa 0,0 l/m 0 min 0 min 391 W/m 33,5 km/h (5 Bft)
08.07.2015 12:56 18,8 C 19,4 C 68 % 0 lf 1009,8 hPa 0,0 l/m 0 min 0 min 412 W/m 48,1 km/h (6 Bft)
08.07.2015 12:58 19,0 C 19,4 C 68 % 0 lf 1009,8 hPa 0,0 l/m 0 min 0 min 415 W/m 33,5 km/h (5 Bft)
08.07.2015 13:00 19,2 C 20,0 C 69 % 0 lf 1009,8 hPa 0,0 l/m 0 min 0 min 415 W/m 27,2 km/h (4 Bft)
08.07.2015 13:02 19,6 C 20,6 C 68 % 0 lf 1009,8 hPa 0,0 l/m 2 min 0 min 544 W/m 35,6 km/h (5 Bft)
08.07.2015 13:04 19,6 C 19,4 C 67 % 0 lf 1009,8 hPa 0,0 l/m 2 min 0 min 435 W/m 46,0 km/h (6 Bft)
08.07.2015 13:06 19,4 C 18,9 C 66 % 0 lf 1009,8 hPa 0,0 l/m 0 min 0 min 363 W/m 48,1 km/h (6 Bft)
08.07.2015 13:08 19,2 C 18,9 C 67 % 0 lf 1009,8 hPa 0,0 l/m 2 min 0 min 458 W/m 37,7 km/h (5 Bft)
08.07.2015 13:10 19,1 C 18,9 C 67 % 0 lf 1009,8 hPa 0,0 l/m 2 min 0 min 434 W/m 46,0 km/h (6 Bft)
08.07.2015 13:12 19,1 C 18,9 C 68 % 0 lf 1009,9 hPa 0,0 l/m 0 min 0 min 380 W/m 41,8 km/h (6 Bft)
08.07.2015 13:14 19,0 C 18,9 C 67 % 0 lf 1009,8 hPa 0,0 l/m 0 min 0 min 329 W/m 39,7 km/h (6 Bft)
08.07.2015 13:16 18,9 C 18,9 C 68 % 0 lf 1009,8 hPa 0,0 l/m 0 min 0 min 303 W/m 31,4 km/h (5 Bft)
08.07.2015 13:18 18,9 C 18,9 C 69 % 0 lf 1009,8 hPa 0,0 l/m 0 min 0 min 322 W/m 31,4 km/h (5 Bft)
08.07.2015 13:20 18,9 C 18,3 C 68 % 0 lf 1009,8 hPa 0,0 l/m 0 min 0 min 320 W/m 46,0 km/h (6 Bft)
08.07.2015 13:22 18,8 C 18,3 C 68 % 0 lf 1009,9 hPa 0,0 l/m 0 min 0 min 215 W/m 46,0 km/h (6 Bft)
08.07.2015 13:24 18,7 C 17,8 C 69 % 0 lf 1009,9 hPa 0,0 l/m 0 min 0 min 148 W/m 46,0 km/h (6 Bft)
08.07.2015 13:26 18,5 C 17,2 C 69 % 0 lf 1009,9 hPa 0,0 l/m 0 min 0 min 156 W/m 52,3 km/h (7 Bft)
08.07.2015 13:28 18,4 C 17,2 C 69 % 0 lf 1010,0 hPa 0,0 l/m 0 min 0 min 171 W/m 43,9 km/h (6 Bft)
08.07.2015 13:30 18,2 C 16,7 C 70 % 4 lf 1010,2 hPa 0,0 l/m 0 min 2 min 146 W/m 54,4 km/h (7 Bft)
08.07.2015 13:32 18,1 C 16,1 C 72 % 9 lf 1010,2 hPa 0,0 l/m 0 min 2 min 146 W/m 54,4 km/h (7 Bft)
08.07.2015 13:34 17,8 C 15,0 C 74 % 15 lf 1010,3 hPa 0,0 l/m 0 min 2 min 162 W/m 50,2 km/h (7 Bft)
08.07.2015 13:36 17,6 C 14,4 C 77 % 15 lf 1010,4 hPa 0,0 l/m 0 min 2 min 134 W/m 48,1 km/h (6 Bft)
08.07.2015 13:38 17,2 C 13,9 C 79 % 15 lf 1010,5 hPa 0,0 l/m 0 min 2 min 141 W/m 39,7 km/h (6 Bft)
08.07.2015 13:40 16,9 C 13,9 C 80 % 15 lf 1010,5 hPa 0,0 l/m 0 min 2 min 171 W/m 31,4 km/h (5 Bft)
08.07.2015 13:42 16,6 C 13,9 C 83 % 15 lf 1010,5 hPa 0,0 l/m 0 min 2 min 192 W/m 31,4 km/h (5 Bft)
08.07.2015 13:44 16,4 C 13,9 C 84 % 15 lf 1010,5 hPa 0,0 l/m 0 min 2 min 178 W/m 27,2 km/h (4 Bft)
08.07.2015 13:46 16,3 C 13,9 C 85 % 15 lf 1010,5 hPa 0,0 l/m 0 min 0 min 187 W/m 27,2 km/h (4 Bft)
08.07.2015 13:48 16,3 C 14,4 C 85 % 15 lf 1010,6 hPa 0,0 l/m 0 min 0 min 168 W/m 27,2 km/h (4 Bft)
08.07.2015 13:50 16,3 C 14,4 C 86 % 15 lf 1010,7 hPa 0,0 l/m 0 min 2 min 162 W/m 31,4 km/h (5 Bft)
08.07.2015 13:52 16,3 C 13,9 C 86 % 15 lf 1010,8 hPa 0,2 l/m 0 min 2 min 124 W/m 39,7 km/h (6 Bft)
08.07.2015 13:54 16,2 C 13,9 C 86 % 15 lf 1010,8 hPa 0,0 l/m 0 min 2 min 116 W/m 31,4 km/h (5 Bft)
08.07.2015 13:56 16,1 C 13,9 C 86 % 15 lf 1010,8 hPa 0,0 l/m 0 min 2 min 136 W/m 23,0 km/h (4 Bft)
08.07.2015 13:58 15,9 C 13,9 C 87 % 15 lf 1010,9 hPa 0,0 l/m 0 min 2 min 184 W/m 37,7 km/h (5 Bft)
08.07.2015 14:00 15,8 C 13,9 C 88 % 15 lf 1010,9 hPa 0,2 l/m 0 min 2 min 264 W/m 35,6 km/h (5 Bft)
08.07.2015 14:02 15,7 C 14,4 C 89 % 15 lf 1010,8 hPa 0,0 l/m 0 min 2 min 310 W/m 33,5 km/h (5 Bft)
08.07.2015 14:04 15,6 C 14,4 C 90 % 15 lf 1010,8 hPa 0,0 l/m 0 min 2 min 377 W/m 33,5 km/h (5 Bft)
08.07.2015 14:06 15,7 C 15,0 C 91 % 15 lf 1010,8 hPa 0,0 l/m 2 min 0 min 503 W/m 31,4 km/h (5 Bft)
08.07.2015 14:08 15,9 C 15,6 C 92 % 15 lf 1010,7 hPa 0,0 l/m 2 min 0 min 752 W/m 27,2 km/h (4 Bft)
08.07.2015 14:10 16,2 C 16,1 C 93 % 15 lf 1010,7 hPa 0,0 l/m 2 min 0 min 904 W/m 37,7 km/h (5 Bft)
08.07.2015 14:12 16,3 C 15,6 C 93 % 15 lf 1010,7 hPa 0,0 l/m 2 min 0 min 779 W/m 33,5 km/h (5 Bft)
08.07.2015 14:14 16,3 C 15,6 C 92 % 15 lf 1010,6 hPa 0,0 l/m 2 min 0 min 519 W/m 35,6 km/h (5 Bft)
08.07.2015 14:16 16,4 C 15,6 C 91 % 15 lf 1010,7 hPa 0,0 l/m 2 min 0 min 444 W/m 35,6 km/h (5 Bft)
08.07.2015 14:18 16,4 C 15,6 C 91 % 15 lf 1010,6 hPa 0,0 l/m 2 min 0 min 548 W/m 46,0 km/h (6 Bft)
08.07.2015 14:20 16,5 C 15,6 C 90 % 15 lf 1010,6 hPa 0,0 l/m 2 min 0 min 592 W/m 43,9 km/h (6 Bft)
08.07.2015 14:22 16,7 C 15,6 C 90 % 15 lf 1010,6 hPa 0,0 l/m 2 min 0 min 598 W/m 33,5 km/h (5 Bft)
08.07.2015 14:24 16,9 C 16,1 C 89 % 12 lf 1010,6 hPa 0,0 l/m 2 min 0 min 610 W/m 35,6 km/h (5 Bft)
08.07.2015 14:26 16,9 C 15,6 C 88 % 3 lf 1010,5 hPa 0,0 l/m 2 min 0 min 512 W/m 41,8 km/h (6 Bft)
08.07.2015 14:28 17,1 C 16,1 C 87 % 0 lf 1010,6 hPa 0,0 l/m 2 min 0 min 514 W/m 39,7 km/h (6 Bft)
08.07.2015 14:30 17,2 C 16,1 C 87 % 0 lf 1010,5 hPa 0,0 l/m 2 min 0 min 450 W/m 35,6 km/h (5 Bft)
08.07.2015 14:32 17,3 C 16,1 C 87 % 0 lf 1010,6 hPa 0,0 l/m 2 min 0 min 428 W/m 35,6 km/h (5 Bft)
08.07.2015 14:34 17,4 C 16,7 C 87 % 0 lf 1010,6 hPa 0,0 l/m 2 min 0 min 544 W/m 31,4 km/h (5 Bft)
08.07.2015 14:36 17,6 C 16,7 C 86 % 0 lf 1010,5 hPa 0,0 l/m 2 min 0 min 682 W/m 41,8 km/h (6 Bft)
08.07.2015 14:38 17,6 C 16,1 C 85 % 0 lf 1010,6 hPa 0,0 l/m 2 min 0 min 435 W/m 50,2 km/h (7 Bft)
08.07.2015 14:40 17,6 C 16,7 C 84 % 0 lf 1010,5 hPa 0,0 l/m 2 min 2 min 420 W/m 29,3 km/h (5 Bft)
08.07.2015 14:42 17,7 C 17,2 C 85 % 0 lf 1010,5 hPa 0,0 l/m 2 min 0 min 485 W/m 31,4 km/h (5 Bft)
08.07.2015 14:44 17,8 C 17,2 C 84 % 0 lf 1010,4 hPa 0,0 l/m 2 min 0 min 466 W/m 39,7 km/h (6 Bft)
08.07.2015 14:46 17,8 C 17,2 C 83 % 0 lf 1010,4 hPa 0,0 l/m 2 min 0 min 436 W/m 37,7 km/h (5 Bft)
08.07.2015 14:48 17,8 C 16,7 C 83 % 0 lf 1010,5 hPa 0,0 l/m 0 min 0 min 310 W/m 25,1 km/h (4 Bft)
08.07.2015 14:50 17,8 C 16,7 C 83 % 1 lf 1010,6 hPa 0,0 l/m 0 min 2 min 256 W/m 27,2 km/h (4 Bft)
08.07.2015 14:52 17,8 C 16,1 C 83 % 3 lf 1010,5 hPa 0,0 l/m 0 min 2 min 278 W/m 31,4 km/h (5 Bft)
08.07.2015 14:54 17,7 C 16,1 C 83 % 4 lf 1010,6 hPa 0,0 l/m 0 min 2 min 290 W/m 35,6 km/h (5 Bft)
08.07.2015 14:56 17,6 C 16,7 C 83 % 1 lf 1010,6 hPa 0,0 l/m 0 min 2 min 403 W/m 33,5 km/h (5 Bft)
08.07.2015 14:58 17,6 C 16,1 C 83 % 5 lf 1010,5 hPa 0,0 l/m 2 min 2 min 413 W/m 48,1 km/h (6 Bft)
08.07.2015 15:00 17,5 C 16,1 C 82 % 0 lf 1010,6 hPa 0,0 l/m 0 min 2 min 346 W/m 33,5 km/h (5 Bft)
08.07.2015 15:02 17,5 C 16,7 C 82 % 0 lf 1010,5 hPa 0,0 l/m 0 min 0 min 348 W/m 33,5 km/h (5 Bft)
08.07.2015 15:04 17,5 C 16,1 C 82 % 0 lf 1010,5 hPa 0,0 l/m 0 min 2 min 259 W/m 29,3 km/h (5 Bft)
08.07.2015 15:06 17,4 C 15,6 C 83 % 15 lf 1010,6 hPa 0,0 l/m 0 min 2 min 236 W/m 33,5 km/h (5 Bft)
08.07.2015 15:08 17,4 C 16,1 C 84 % 15 lf 1010,5 hPa 0,0 l/m 0 min 2 min 280 W/m 29,3 km/h (5 Bft)
08.07.2015 15:10 17,3 C 16,1 C 84 % 15 lf 1010,5 hPa 0,0 l/m 2 min 2 min 470 W/m 27,2 km/h (4 Bft)
08.07.2015 15:12 17,4 C 17,2 C 85 % 12 lf 1010,6 hPa 0,0 l/m 2 min 2 min 593 W/m 37,7 km/h (5 Bft)
08.07.2015 15:14 17,6 C 17,8 C 84 % 0 lf 1010,6 hPa 0,0 l/m 2 min 0 min 562 W/m 37,7 km/h (5 Bft)
08.07.2015 15:16 17,7 C 18,3 C 83 % 0 lf 1010,5 hPa 0,0 l/m 2 min 0 min 454 W/m 35,6 km/h (5 Bft)
08.07.2015 15:18 17,9 C 18,3 C 83 % 0 lf 1010,6 hPa 0,0 l/m 2 min 0 min 634 W/m 41,8 km/h (6 Bft)
08.07.2015 15:20 18,0 C 18,3 C 81 % 0 lf 1010,6 hPa 0,0 l/m 2 min 0 min 647 W/m 33,5 km/h (5 Bft)
08.07.2015 15:22 18,1 C 18,3 C 81 % 0 lf 1010,5 hPa 0,0 l/m 0 min 0 min 375 W/m 31,4 km/h (5 Bft)
08.07.2015 15:24 18,2 C 18,3 C 81 % 0 lf 1010,5 hPa 0,0 l/m 0 min 0 min 318 W/m 20,9 km/h (4 Bft)
08.07.2015 15:26 18,3 C 18,3 C 81 % 0 lf 1010,6 hPa 0,0 l/m 0 min 0 min 335 W/m 20,9 km/h (4 Bft)
08.07.2015 15:28 18,4 C 18,3 C 80 % 0 lf 1010,5 hPa 0,0 l/m 0 min 0 min 339 W/m 27,2 km/h (4 Bft)
08.07.2015 15:30 18,4 C 18,3 C 80 % 0 lf 1010,5 hPa 0,0 l/m 0 min 0 min 345 W/m 25,1 km/h (4 Bft)
08.07.2015 15:32 18,5 C 18,3 C 80 % 0 lf 1010,5 hPa 0,0 l/m 2 min 0 min 419 W/m 46,0 km/h (6 Bft)
08.07.2015 15:34 18,6 C 18,3 C 78 % 0 lf 1010,6 hPa 0,0 l/m 0 min 0 min 382 W/m 41,8 km/h (6 Bft)
08.07.2015 15:36 18,6 C 18,3 C 78 % 0 lf 1010,5 hPa 0,0 l/m 0 min 0 min 293 W/m 39,7 km/h (6 Bft)
08.07.2015 15:38 18,6 C 17,8 C 77 % 0 lf 1010,6 hPa 0,0 l/m 0 min 0 min 230 W/m 29,3 km/h (5 Bft)
08.07.2015 15:40 18,6 C 17,8 C 77 % 0 lf 1010,6 hPa 0,0 l/m 0 min 2 min 194 W/m 31,4 km/h (5 Bft)
08.07.2015 15:42 18,6 C 17,8 C 78 % 0 lf 1010,6 hPa 0,0 l/m 0 min 0 min 186 W/m 33,5 km/h (5 Bft)
08.07.2015 15:44 18,6 C 17,8 C 77 % 0 lf 1010,5 hPa 0,0 l/m 0 min 0 min 202 W/m 29,3 km/h (5 Bft)
08.07.2015 15:46 18,5 C 17,8 C 77 % 0 lf 1010,6 hPa 0,0 l/m 0 min 0 min 189 W/m 33,5 km/h (5 Bft)
08.07.2015 15:48 18,5 C 17,2 C 77 % 12 lf 1010,7 hPa 0,0 l/m 0 min 2 min 144 W/m 37,7 km/h (5 Bft)
08.07.2015 15:50 18,5 C 16,1 C 78 % 15 lf 1010,6 hPa 0,0 l/m 0 min 2 min 139 W/m 37,7 km/h (5 Bft)
08.07.2015 15:52 18,4 C 15,6 C 79 % 15 lf 1010,7 hPa 0,0 l/m 0 min 2 min 131 W/m 35,6 km/h (5 Bft)
08.07.2015 15:54 18,3 C 15,6 C 79 % 15 lf 1010,7 hPa 0,0 l/m 0 min 2 min 127 W/m 29,3 km/h (5 Bft)
08.07.2015 15:56 18,2 C 15,6 C 79 % 15 lf 1010,7 hPa 0,0 l/m 0 min 2 min 119 W/m 31,4 km/h (5 Bft)
08.07.2015 15:58 18,1 C 15,6 C 80 % 15 lf 1010,7 hPa 0,0 l/m 0 min 2 min 81 W/m 29,3 km/h (5 Bft)
08.07.2015 16:00 18,1 C 15,6 C 80 % 15 lf 1010,8 hPa 0,0 l/m 0 min 2 min 90 W/m 25,1 km/h (4 Bft)
08.07.2015 16:02 18,0 C 15,6 C 81 % 15 lf 1010,9 hPa 0,0 l/m 0 min 2 min 164 W/m 33,5 km/h (5 Bft)
08.07.2015 16:04 17,9 C 15,6 C 81 % 15 lf 1010,8 hPa 0,0 l/m 0 min 2 min 239 W/m 31,4 km/h (5 Bft)
08.07.2015 16:06 17,9 C 16,1 C 82 % 15 lf 1010,8 hPa 0,0 l/m 0 min 2 min 317 W/m 18,8 km/h (3 Bft)
08.07.2015 16:08 17,9 C 16,1 C 83 % 15 lf 1010,7 hPa 0,0 l/m 0 min 2 min 313 W/m 27,2 km/h (4 Bft)
08.07.2015 16:10 17,9 C 16,1 C 83 % 15 lf 1010,7 hPa 0,0 l/m 0 min 2 min 304 W/m 23,0 km/h (4 Bft)
08.07.2015 16:12 17,9 C 16,1 C 83 % 15 lf 1010,8 hPa 0,0 l/m 0 min 2 min 303 W/m 31,4 km/h (5 Bft)
08.07.2015 16:14 18,0 C 16,1 C 84 % 15 lf 1010,7 hPa 0,0 l/m 0 min 2 min 299 W/m 20,9 km/h (4 Bft)
08.07.2015 16:16 18,0 C 16,1 C 84 % 15 lf 1010,7 hPa 0,0 l/m 0 min 0 min 255 W/m 31,4 km/h (5 Bft)
08.07.2015 16:18 18,0 C 16,1 C 84 % 14 lf 1010,7 hPa 0,0 l/m 0 min 0 min 217 W/m 18,8 km/h (3 Bft)
08.07.2015 16:20 18,0 C 16,1 C 84 % 13 lf 1010,6 hPa 0,0 l/m 0 min 0 min 150 W/m 14,6 km/h (3 Bft)
08.07.2015 16:22 18,0 C 16,1 C 84 % 12 lf 1010,6 hPa 0,0 l/m 0 min 2 min 83 W/m 16,7 km/h (3 Bft)
08.07.2015 16:24 18,0 C 15,6 C 84 % 11 lf 1010,7 hPa 0,0 l/m 0 min 0 min 54 W/m 16,7 km/h (3 Bft)
08.07.2015 16:26 18,0 C 15,0 C 84 % 15 lf 1010,9 hPa 0,2 l/m 0 min 2 min 34 W/m 23,0 km/h (4 Bft)
08.07.2015 16:28 18,0 C 15,0 C 84 % 15 lf 1010,9 hPa 0,6 l/m 0 min 2 min 42 W/m 18,8 km/h (3 Bft)
08.07.2015 16:30 17,9 C 15,0 C 85 % 15 lf 1010,9 hPa 0,6 l/m 0 min 2 min 48 W/m 25,1 km/h (4 Bft)
08.07.2015 16:32 17,8 C 14,4 C 85 % 15 lf 1011,0 hPa 0,4 l/m 0 min 2 min 128 W/m 20,9 km/h (4 Bft)
08.07.2015 16:34 17,7 C 15,0 C 86 % 15 lf 1010,9 hPa 0,0 l/m 0 min 2 min 287 W/m 16,7 km/h (3 Bft)
08.07.2015 16:36 17,7 C 15,6 C 87 % 15 lf 1010,9 hPa 0,0 l/m 0 min 0 min 331 W/m 20,9 km/h (4 Bft)
08.07.2015 16:38 17,6 C 15,6 C 87 % 15 lf 1010,8 hPa 0,0 l/m 2 min 2 min 365 W/m 12,6 km/h (3 Bft)
08.07.2015 16:40 17,6 C 16,1 C 88 % 15 lf 1010,9 hPa 0,0 l/m 2 min 0 min 466 W/m 18,8 km/h (3 Bft)
08.07.2015 16:42 17,7 C 16,1 C 89 % 15 lf 1010,9 hPa 0,0 l/m 2 min 0 min 464 W/m 25,1 km/h (4 Bft)
08.07.2015 16:44 17,7 C 16,1 C 89 % 15 lf 1010,9 hPa 0,0 l/m 2 min 0 min 374 W/m 14,6 km/h (3 Bft)
08.07.2015 16:46 17,7 C 16,1 C 90 % 15 lf 1010,8 hPa 0,0 l/m 2 min 0 min 355 W/m 23,0 km/h (4 Bft)
08.07.2015 16:48 17,8 C 16,7 C 90 % 15 lf 1010,8 hPa 0,0 l/m 2 min 0 min 426 W/m 27,2 km/h (4 Bft)
08.07.2015 16:50 17,8 C 16,1 C 90 % 15 lf 1010,8 hPa 0,0 l/m 2 min 0 min 582 W/m 25,1 km/h (4 Bft)
08.07.2015 16:52 17,8 C 16,1 C 90 % 15 lf 1010,7 hPa 0,0 l/m 2 min 0 min 367 W/m 23,0 km/h (4 Bft)
08.07.2015 16:54 17,8 C 16,1 C 90 % 15 lf 1010,8 hPa 0,0 l/m 0 min 0 min 266 W/m 20,9 km/h (4 Bft)
08.07.2015 16:56 17,7 C 16,1 C 90 % 15 lf 1010,8 hPa 0,0 l/m 0 min 0 min 281 W/m 20,9 km/h (4 Bft)
08.07.2015 16:58 17,7 C 15,6 C 90 % 15 lf 1010,8 hPa 0,0 l/m 0 min 0 min 305 W/m 27,2 km/h (4 Bft)
08.07.2015 17:00 17,6 C 15,6 C 90 % 15 lf 1010,7 hPa 0,0 l/m 2 min 2 min 323 W/m 27,2 km/h (4 Bft)
08.07.2015 17:02 17,6 C 15,6 C 89 % 14 lf 1010,7 hPa 0,0 l/m 0 min 0 min 276 W/m 33,5 km/h (5 Bft)
08.07.2015 17:04 17,5 C 15,6 C 89 % 12 lf 1010,7 hPa 0,0 l/m 0 min 0 min 264 W/m 29,3 km/h (5 Bft)
08.07.2015 17:06 17,5 C 15,6 C 89 % 9 lf 1010,7 hPa 0,0 l/m 0 min 0 min 290 W/m 29,3 km/h (5 Bft)
08.07.2015 17:08 17,5 C 15,6 C 89 % 4 lf 1010,7 hPa 0,0 l/m 0 min 0 min 303 W/m 31,4 km/h (5 Bft)
08.07.2015 17:10 17,5 C 15,6 C 89 % 3 lf 1010,8 hPa 0,0 l/m 2 min 0 min 315 W/m 25,1 km/h (4 Bft)
08.07.2015 17:12 17,5 C 15,6 C 89 % 2 lf 1010,7 hPa 0,0 l/m 2 min 0 min 318 W/m 23,0 km/h (4 Bft)
08.07.2015 17:14 17,5 C 16,1 C 89 % 1 lf 1010,7 hPa 0,0 l/m 2 min 0 min 339 W/m 25,1 km/h (4 Bft)
08.07.2015 17:16 17,5 C 16,1 C 89 % 0 lf 1010,7 hPa 0,0 l/m 2 min 0 min 377 W/m 33,5 km/h (5 Bft)
08.07.2015 17:18 17,6 C 16,1 C 89 % 0 lf 1010,8 hPa 0,0 l/m 2 min 0 min 575 W/m 35,6 km/h (5 Bft)
08.07.2015 17:20 17,7 C 16,7 C 89 % 0 lf 1010,7 hPa 0,0 l/m 2 min 0 min 815 W/m 25,1 km/h (4 Bft)
08.07.2015 17:22 17,8 C 16,1 C 89 % 0 lf 1010,6 hPa 0,0 l/m 2 min 0 min 715 W/m 23,0 km/h (4 Bft)
08.07.2015 17:24 18,0 C 16,1 C 89 % 0 lf 1010,7 hPa 0,0 l/m 2 min 0 min 663 W/m 25,1 km/h (4 Bft)
08.07.2015 17:26 18,1 C 16,1 C 89 % 0 lf 1010,5 hPa 0,0 l/m 2 min 0 min 627 W/m 29,3 km/h (5 Bft)
08.07.2015 17:28 18,2 C 16,1 C 88 % 0 lf 1010,5 hPa 0,0 l/m 2 min 0 min 615 W/m 23,0 km/h (4 Bft)
08.07.2015 17:30 18,3 C 16,1 C 87 % 0 lf 1010,5 hPa 0,0 l/m 2 min 0 min 607 W/m 31,4 km/h (5 Bft)
08.07.2015 17:32 18,5 C 16,1 C 87 % 0 lf 1010,6 hPa 0,0 l/m 2 min 0 min 609 W/m 37,7 km/h (5 Bft)
08.07.2015 17:34 18,6 C 15,6 C 86 % 0 lf 1010,5 hPa 0,0 l/m 2 min 0 min 612 W/m 35,6 km/h (5 Bft)
08.07.2015 17:36 18,6 C 15,6 C 85 % 0 lf 1010,5 hPa 0,0 l/m 2 min 0 min 615 W/m 39,7 km/h (6 Bft)
08.07.2015 17:38 18,6 C 15,6 C 84 % 0 lf 1010,4 hPa 0,0 l/m 2 min 0 min 619 W/m 31,4 km/h (5 Bft)
08.07.2015 17:40 18,6 C 15,6 C 84 % 0 lf 1010,6 hPa 0,0 l/m 2 min 0 min 661 W/m 35,6 km/h (5 Bft)
08.07.2015 17:42 18,6 C 16,1 C 84 % 0 lf 1010,5 hPa 0,0 l/m 2 min 0 min 661 W/m 23,0 km/h (4 Bft)
08.07.2015 17:44 18,7 C 16,1 C 85 % 0 lf 1010,5 hPa 0,0 l/m 2 min 0 min 620 W/m 33,5 km/h (5 Bft)
08.07.2015 17:46 18,7 C 16,1 C 84 % 0 lf 1010,6 hPa 0,0 l/m 2 min 0 min 332 W/m 31,4 km/h (5 Bft)
08.07.2015 17:48 18,7 C 16,1 C 84 % 0 lf 1010,6 hPa 0,0 l/m 2 min 0 min 294 W/m 31,4 km/h (5 Bft)
08.07.2015 17:50 18,7 C 15,6 C 84 % 0 lf 1010,5 hPa 0,0 l/m 0 min 0 min 221 W/m 27,2 km/h (4 Bft)
08.07.2015 17:52 18,7 C 15,6 C 83 % 0 lf 1010,6 hPa 0,0 l/m 0 min 0 min 263 W/m 29,3 km/h (5 Bft)
08.07.2015 17:54 18,7 C 16,1 C 83 % 0 lf 1010,5 hPa 0,0 l/m 2 min 0 min 293 W/m 39,7 km/h (6 Bft)
08.07.2015 17:56 18,7 C 16,1 C 82 % 0 lf 1010,5 hPa 0,0 l/m 2 min 0 min 732 W/m 29,3 km/h (5 Bft)
08.07.2015 17:58 18,8 C 16,7 C 83 % 0 lf 1010,5 hPa 0,0 l/m 2 min 0 min 768 W/m 25,1 km/h (4 Bft)
08.07.2015 18:00 18,9 C 16,7 C 83 % 0 lf 1010,6 hPa 0,0 l/m 2 min 0 min 582 W/m 25,1 km/h (4 Bft)
08.07.2015 18:02 19,0 C 16,7 C 83 % 0 lf 1010,6 hPa 0,0 l/m 2 min 0 min 301 W/m 31,4 km/h (5 Bft)
08.07.2015 18:05 19,1 C 16,1 C 82 % 0 lf 1010,6 hPa 0,0 l/m 2 min 0 min 265 W/m 35,6 km/h (5 Bft)
08.07.2015 18:06 19,1 C 16,1 C 82 % 0 lf 1010,6 hPa 0,0 l/m 1 min 0 min 309 W/m 37,7 km/h (5 Bft)
08.07.2015 18:08 19,1 C 16,1 C 82 % 0 lf 1010,6 hPa 0,0 l/m 2 min 0 min 253 W/m 29,3 km/h (5 Bft)
08.07.2015 18:10 19,1 C 16,1 C 82 % 0 lf 1010,6 hPa 0,0 l/m 2 min 0 min 341 W/m 31,4 km/h (5 Bft)
08.07.2015 18:12 19,1 C 16,1 C 82 % 0 lf 1010,7 hPa 0,0 l/m 2 min 0 min 344 W/m 37,7 km/h (5 Bft)
08.07.2015 18:14 19,1 C 15,6 C 81 % 0 lf 1010,8 hPa 0,0 l/m 0 min 0 min 221 W/m 33,5 km/h (5 Bft)
08.07.2015 18:16 19,0 C 16,1 C 81 % 0 lf 1010,7 hPa 0,0 l/m 0 min 0 min 237 W/m 27,2 km/h (4 Bft)
08.07.2015 18:18 19,0 C 16,1 C 82 % 0 lf 1010,7 hPa 0,0 l/m 2 min 0 min 565 W/m 23,0 km/h (4 Bft)
08.07.2015 18:20 19,1 C 16,1 C 82 % 0 lf 1010,6 hPa 0,0 l/m 2 min 0 min 551 W/m 25,1 km/h (4 Bft)
08.07.2015 18:22 19,1 C 16,1 C 82 % 0 lf 1010,6 hPa 0,0 l/m 2 min 0 min 510 W/m 27,2 km/h (4 Bft)
08.07.2015 18:24 19,1 C 15,6 C 81 % 0 lf 1010,6 hPa 0,0 l/m 2 min 0 min 481 W/m 29,3 km/h (5 Bft)
08.07.2015 18:26 19,1 C 15,6 C 80 % 0 lf 1010,7 hPa 0,0 l/m 2 min 0 min 410 W/m 33,5 km/h (5 Bft)
08.07.2015 18:28 19,0 C 15,6 C 79 % 0 lf 1010,6 hPa 0,0 l/m 2 min 0 min 231 W/m 41,8 km/h (6 Bft)
08.07.2015 18:30 18,9 C 15,6 C 78 % 0 lf 1010,7 hPa 0,0 l/m 2 min 0 min 391 W/m 31,4 km/h (5 Bft)
08.07.2015 18:32 19,0 C 15,6 C 78 % 0 lf 1010,7 hPa 0,0 l/m 2 min 0 min 398 W/m 29,3 km/h (5 Bft)
08.07.2015 18:34 19,0 C 15,6 C 78 % 0 lf 1010,7 hPa 0,0 l/m 0 min 0 min 161 W/m 31,4 km/h (5 Bft)
08.07.2015 18:36 18,9 C 15,6 C 78 % 0 lf 1010,8 hPa 0,0 l/m 0 min 0 min 153 W/m 31,4 km/h (5 Bft)
08.07.2015 18:38 18,9 C 15,6 C 78 % 0 lf 1010,8 hPa 0,0 l/m 0 min 0 min 125 W/m 20,9 km/h (4 Bft)
08.07.2015 18:40 18,9 C 15,6 C 79 % 0 lf 1010,8 hPa 0,0 l/m 0 min 0 min 76 W/m 18,8 km/h (3 Bft)
08.07.2015 18:42 18,9 C 15,6 C 79 % 0 lf 1010,7 hPa 0,0 l/m 0 min 0 min 48 W/m 16,7 km/h (3 Bft)
08.07.2015 18:44 18,9 C 15,6 C 79 % 0 lf 1010,7 hPa 0,0 l/m 0 min 0 min 42 W/m 14,6 km/h (3 Bft)
08.07.2015 18:46 18,8 C 15,6 C 79 % 3 lf 1010,7 hPa 0,0 l/m 0 min 0 min 46 W/m 23,0 km/h (4 Bft)
08.07.2015 18:48 18,8 C 15,0 C 79 % 4 lf 1010,6 hPa 0,0 l/m 0 min 2 min 42 W/m 27,2 km/h (4 Bft)
08.07.2015 18:50 18,8 C 15,0 C 79 % 1 lf 1010,9 hPa 0,0 l/m 0 min 2 min 46 W/m 25,1 km/h (4 Bft)
08.07.2015 18:52 18,7 C 15,0 C 79 % 0 lf 1010,8 hPa 0,0 l/m 0 min 0 min 42 W/m 25,1 km/h (4 Bft)
08.07.2015 18:54 18,7 C 15,0 C 79 % 1 lf 1010,8 hPa 0,0 l/m 0 min 2 min 34 W/m 18,8 km/h (3 Bft)
08.07.2015 18:56 18,7 C 15,0 C 79 % 15 lf 1010,8 hPa 0,0 l/m 0 min 2 min 33 W/m 18,8 km/h (3 Bft)
08.07.2015 18:58 18,6 C 15,0 C 80 % 15 lf 1010,9 hPa 0,2 l/m 0 min 2 min 28 W/m 18,8 km/h (3 Bft)
08.07.2015 19:00 18,6 C 14,4 C 81 % 15 lf 1011,0 hPa 0,2 l/m 0 min 2 min 32 W/m 27,2 km/h (4 Bft)
08.07.2015 19:02 18,6 C 15,0 C 81 % 15 lf 1011,0 hPa 0,2 l/m 0 min 2 min 45 W/m 20,9 km/h (4 Bft)
08.07.2015 19:04 18,4 C 14,4 C 82 % 15 lf 1011,0 hPa 0,8 l/m 0 min 2 min 39 W/m 16,7 km/h (3 Bft)
08.07.2015 19:06 18,4 C 14,4 C 83 % 15 lf 1011,0 hPa 0,4 l/m 0 min 2 min 39 W/m 16,7 km/h (3 Bft)
08.07.2015 19:08 18,3 C 15,0 C 84 % 15 lf 1011,0 hPa 0,0 l/m 0 min 2 min 86 W/m 23,0 km/h (4 Bft)
08.07.2015 19:10 18,2 C 15,0 C 84 % 15 lf 1010,9 hPa 0,0 l/m 0 min 0 min 114 W/m 29,3 km/h (5 Bft)
08.07.2015 19:12 18,1 C 15,0 C 85 % 15 lf 1011,0 hPa 0,0 l/m 0 min 0 min 117 W/m 20,9 km/h (4 Bft)
08.07.2015 19:14 18,0 C 15,0 C 86 % 15 lf 1011,0 hPa 0,0 l/m 0 min 0 min 92 W/m 25,1 km/h (4 Bft)
08.07.2015 19:16 17,9 C 15,0 C 86 % 15 lf 1011,1 hPa 0,0 l/m 0 min 0 min 50 W/m 27,2 km/h (4 Bft)
08.07.2015 19:18 17,8 C 14,4 C 86 % 15 lf 1011,3 hPa 0,0 l/m 0 min 0 min 30 W/m 23,0 km/h (4 Bft)
08.07.2015 19:20 17,7 C 13,9 C 86 % 15 lf 1011,2 hPa 0,0 l/m 0 min 2 min 27 W/m 14,6 km/h (3 Bft)
08.07.2015 19:22 17,5 C 13,9 C 86 % 15 lf 1011,2 hPa 0,0 l/m 0 min 2 min 27 W/m 18,8 km/h (3 Bft)
08.07.2015 19:24 17,4 C 13,9 C 86 % 15 lf 1011,3 hPa 0,0 l/m 0 min 0 min 23 W/m 16,7 km/h (3 Bft)
08.07.2015 19:26 17,3 C 13,9 C 86 % 15 lf 1011,3 hPa 0,0 l/m 0 min 0 min 30 W/m 12,6 km/h (3 Bft)
08.07.2015 19:28 17,2 C 13,9 C 86 % 15 lf 1011,4 hPa 0,0 l/m 0 min 0 min 22 W/m 18,8 km/h (3 Bft)
08.07.2015 19:30 17,1 C 13,9 C 86 % 15 lf 1011,3 hPa 0,0 l/m 0 min 0 min 15 W/m 14,6 km/h (3 Bft)
08.07.2015 19:32 16,9 C 13,9 C 86 % 15 lf 1011,3 hPa 0,0 l/m 0 min 2 min 13 W/m 16,7 km/h (3 Bft)
08.07.2015 19:34 16,9 C 13,9 C 87 % 15 lf 1011,3 hPa 0,0 l/m 0 min 2 min 17 W/m 12,6 km/h (3 Bft)
08.07.2015 19:36 16,8 C 13,9 C 87 % 15 lf 1011,3 hPa 0,0 l/m 0 min 2 min 21 W/m 16,7 km/h (3 Bft)
08.07.2015 19:38 16,7 C 13,9 C 87 % 15 lf 1011,4 hPa 0,0 l/m 0 min 2 min 25 W/m 12,6 km/h (3 Bft)
08.07.2015 19:40 16,7 C 13,9 C 87 % 15 lf 1011,4 hPa 0,2 l/m 0 min 2 min 26 W/m 16,7 km/h (3 Bft)
08.07.2015 19:42 16,6 C 13,9 C 87 % 15 lf 1011,5 hPa 0,0 l/m 0 min 2 min 27 W/m 12,6 km/h (3 Bft)
08.07.2015 19:44 16,5 C 13,9 C 88 % 15 lf 1011,5 hPa 0,0 l/m 0 min 0 min 23 W/m 12,6 km/h (3 Bft)
08.07.2015 19:46 16,4 C 13,9 C 88 % 15 lf 1011,5 hPa 0,0 l/m 0 min 0 min 21 W/m 14,6 km/h (3 Bft)
08.07.2015 19:48 16,4 C 13,9 C 88 % 15 lf 1011,5 hPa 0,0 l/m 0 min 2 min 21 W/m 10,5 km/h (2 Bft)
08.07.2015 19:50 16,3 C 13,9 C 89 % 15 lf 1011,5 hPa 0,0 l/m 0 min 2 min 20 W/m 8,4 km/h (2 Bft)
08.07.2015 19:52 16,3 C 13,9 C 89 % 15 lf 1011,6 hPa 0,4 l/m 0 min 2 min 19 W/m 8,4 km/h (2 Bft)
08.07.2015 19:54 16,2 C 13,9 C 89 % 15 lf 1011,5 hPa 0,4 l/m 0 min 2 min 16 W/m 6,3 km/h (2 Bft)
08.07.2015 19:56 16,2 C 13,9 C 89 % 15 lf 1011,7 hPa 0,2 l/m 0 min 2 min 12 W/m 12,6 km/h (3 Bft)
08.07.2015 19:58 16,2 C 13,9 C 89 % 15 lf 1011,6 hPa 1,2 l/m 0 min 2 min 12 W/m 10,5 km/h (2 Bft)
08.07.2015 20:00 16,1 C 13,9 C 90 % 15 lf 1011,6 hPa 0,2 l/m 0 min 2 min 11 W/m 12,6 km/h (3 Bft)
08.07.2015 20:02 16,1 C 13,9 C 90 % 15 lf 1011,7 hPa 1,6 l/m 0 min 2 min 11 W/m 25,1 km/h (4 Bft)
08.07.2015 20:04 16,1 C 13,9 C 90 % 15 lf 1011,6 hPa 1,2 l/m 0 min 2 min 14 W/m 18,8 km/h (3 Bft)
08.07.2015 20:06 15,9 C 13,9 C 91 % 15 lf 1011,6 hPa 0,0 l/m 0 min 2 min 19 W/m 14,6 km/h (3 Bft)
08.07.2015 20:08 15,9 C 13,9 C 91 % 15 lf 1011,6 hPa 0,0 l/m 0 min 2 min 17 W/m 14,6 km/h (3 Bft)
08.07.2015 20:10 15,9 C 13,9 C 91 % 15 lf 1011,6 hPa 0,2 l/m 0 min 0 min 15 W/m 12,6 km/h (3 Bft)
08.07.2015 20:12 15,8 C 13,9 C 91 % 15 lf 1011,6 hPa 0,0 l/m 0 min 2 min 14 W/m 12,6 km/h (3 Bft)
08.07.2015 20:14 15,8 C 13,9 C 91 % 15 lf 1011,5 hPa 0,0 l/m 0 min 2 min 14 W/m 10,5 km/h (2 Bft)
08.07.2015 20:16 15,8 C 13,9 C 91 % 15 lf 1011,6 hPa 0,0 l/m 0 min 2 min 11 W/m 16,7 km/h (3 Bft)
08.07.2015 20:18 15,7 C 13,9 C 91 % 15 lf 1011,6 hPa 0,2 l/m 0 min 2 min 9 W/m 14,6 km/h (3 Bft)
08.07.2015 20:20 15,7 C 13,9 C 92 % 15 lf 1011,6 hPa 0,2 l/m 0 min 2 min 10 W/m 14,6 km/h (3 Bft)
08.07.2015 20:22 15,7 C 13,9 C 92 % 15 lf 1011,6 hPa 0,2 l/m 0 min 2 min 13 W/m 10,5 km/h (2 Bft)
08.07.2015 20:24 15,7 C 13,9 C 92 % 15 lf 1011,6 hPa 0,2 l/m 0 min 2 min 30 W/m 12,6 km/h (3 Bft)
08.07.2015 20:26 15,7 C 13,9 C 92 % 15 lf 1011,6 hPa 0,0 l/m 0 min 2 min 54 W/m 8,4 km/h (2 Bft)
08.07.2015 20:28 15,7 C 13,9 C 92 % 15 lf 1011,5 hPa 0,2 l/m 0 min 2 min 73 W/m 8,4 km/h (2 Bft)
08.07.2015 20:30 15,6 C 14,4 C 92 % 15 lf 1011,5 hPa 0,0 l/m 2 min 0 min 98 W/m 6,3 km/h (2 Bft)
08.07.2015 20:32 15,6 C 14,4 C 93 % 15 lf 1011,5 hPa 0,0 l/m 0 min 0 min 69 W/m 6,3 km/h (2 Bft)
08.07.2015 20:34 15,7 C 14,4 C 93 % 15 lf 1011,5 hPa 0,0 l/m 0 min 0 min 49 W/m 8,4 km/h (2 Bft)
08.07.2015 20:36 15,7 C 14,4 C 93 % 15 lf 1011,6 hPa 0,0 l/m 0 min 0 min 42 W/m 8,4 km/h (2 Bft)
08.07.2015 20:38 15,7 C 14,4 C 93 % 15 lf 1011,6 hPa 0,0 l/m 0 min 0 min 39 W/m 6,3 km/h (2 Bft)
08.07.2015 20:40 15,7 C 14,4 C 93 % 15 lf 1011,6 hPa 0,0 l/m 0 min 0 min 37 W/m 10,5 km/h (2 Bft)
08.07.2015 20:42 15,7 C 14,4 C 93 % 15 lf 1011,6 hPa 0,0 l/m 0 min 0 min 33 W/m 6,3 km/h (2 Bft)
08.07.2015 20:44 15,7 C 13,9 C 93 % 15 lf 1011,5 hPa 0,0 l/m 0 min 0 min 28 W/m 4,2 km/h (1 Bft)
08.07.2015 20:46 15,7 C 14,4 C 93 % 15 lf 1011,6 hPa 0,0 l/m 0 min 0 min 24 W/m 4,2 km/h (1 Bft)
08.07.2015 20:48 15,6 C 14,4 C 93 % 15 lf 1011,6 hPa 0,0 l/m 0 min 0 min 25 W/m 4,2 km/h (1 Bft)
08.07.2015 20:50 15,6 C 13,9 C 93 % 15 lf 1011,5 hPa 0,0 l/m 0 min 0 min 26 W/m 2,1 km/h (1 Bft)
08.07.2015 20:52 15,6 C 13,9 C 94 % 15 lf 1011,4 hPa 0,0 l/m 0 min 0 min 22 W/m 4,2 km/h (1 Bft)
08.07.2015 20:54 15,6 C 14,4 C 94 % 15 lf 1011,5 hPa 0,0 l/m 0 min 0 min 18 W/m 6,3 km/h (2 Bft)
08.07.2015 20:56 15,6 C 14,4 C 94 % 15 lf 1011,5 hPa 0,0 l/m 0 min 2 min 15 W/m 6,3 km/h (2 Bft)
08.07.2015 20:58 15,6 C 13,9 C 94 % 15 lf 1011,5 hPa 0,0 l/m 0 min 2 min 13 W/m 4,2 km/h (1 Bft)
08.07.2015 21:00 15,6 C 13,9 C 94 % 15 lf 1011,4 hPa 0,0 l/m 0 min 2 min 11 W/m 6,3 km/h (2 Bft)
08.07.2015 21:02 15,6 C 13,9 C 94 % 15 lf 1011,5 hPa 0,0 l/m 0 min 2 min 11 W/m 4,2 km/h (1 Bft)
08.07.2015 21:04 15,6 C 13,9 C 94 % 15 lf 1011,5 hPa 0,0 l/m 0 min 2 min 9 W/m 2,1 km/h (1 Bft)
08.07.2015 21:06 15,6 C 13,9 C 94 % 15 lf 1011,5 hPa 0,0 l/m 0 min 0 min 6 W/m 4,2 km/h (1 Bft)
08.07.2015 21:08 15,6 C 13,9 C 94 % 15 lf 1011,5 hPa 0,0 l/m 0 min 2 min 5 W/m 4,2 km/h (1 Bft)
08.07.2015 21:10 15,5 C 13,9 C 94 % 15 lf 1011,5 hPa 0,2 l/m 0 min 2 min 0 W/m 4,2 km/h (1 Bft)
08.07.2015 21:12 15,5 C 13,9 C 94 % 15 lf 1011,6 hPa 0,2 l/m 0 min 2 min 0 W/m 4,2 km/h (1 Bft)
08.07.2015 21:14 15,5 C 13,9 C 94 % 15 lf 1011,6 hPa 0,0 l/m 0 min 2 min 5 W/m 4,2 km/h (1 Bft)
08.07.2015 21:16 15,5 C 13,9 C 94 % 15 lf 1011,6 hPa 0,0 l/m 0 min 0 min 5 W/m 4,2 km/h (1 Bft)
08.07.2015 21:18 15,5 C 13,9 C 94 % 15 lf 1011,6 hPa 0,0 l/m 0 min 0 min 5 W/m 2,1 km/h (1 Bft)
08.07.2015 21:20 15,5 C 13,9 C 94 % 15 lf 1011,6 hPa 0,0 l/m 0 min 0 min 5 W/m 6,3 km/h (2 Bft)
08.07.2015 21:22 15,5 C 13,9 C 94 % 15 lf 1011,8 hPa 0,0 l/m 0 min 0 min 5 W/m 4,2 km/h (1 Bft)
08.07.2015 21:24 15,5 C 14,4 C 94 % 15 lf 1011,8 hPa 0,0 l/m 0 min 0 min 7 W/m 8,4 km/h (2 Bft)
08.07.2015 21:26 15,5 C 13,9 C 94 % 15 lf 1011,8 hPa 0,0 l/m 0 min 0 min 7 W/m 8,4 km/h (2 Bft)
08.07.2015 21:28 15,5 C 13,9 C 94 % 15 lf 1011,8 hPa 0,0 l/m 0 min 0 min 6 W/m 10,5 km/h (2 Bft)
08.07.2015 21:30 15,6 C 13,9 C 95 % 15 lf 1011,8 hPa 0,0 l/m 0 min 2 min 5 W/m 18,8 km/h (3 Bft)
08.07.2015 21:32 15,6 C 13,9 C 95 % 15 lf 1011,8 hPa 0,0 l/m 0 min 2 min 5 W/m 20,9 km/h (4 Bft)
08.07.2015 21:34 15,6 C 13,9 C 94 % 15 lf 1011,8 hPa 0,0 l/m 0 min 2 min 2 W/m 10,5 km/h (2 Bft)
08.07.2015 21:36 15,5 C 13,9 C 94 % 15 lf 1011,8 hPa 0,0 l/m 0 min 2 min 0 W/m 10,5 km/h (2 Bft)
08.07.2015 21:38 15,5 C 13,9 C 94 % 15 lf 1011,8 hPa 0,0 l/m 0 min 2 min 0 W/m 8,4 km/h (2 Bft)
08.07.2015 21:40 15,5 C 13,9 C 94 % 15 lf 1011,8 hPa 0,0 l/m 0 min 0 min 0 W/m 10,5 km/h (2 Bft)
08.07.2015 21:42 15,5 C 13,9 C 94 % 15 lf 1011,8 hPa 0,0 l/m 0 min 0 min 0 W/m 10,5 km/h (2 Bft)
08.07.2015 21:44 15,4 C 13,9 C 95 % 15 lf 1011,9 hPa 0,0 l/m 0 min 0 min 0 W/m 10,5 km/h (2 Bft)
08.07.2015 21:46 15,4 C 13,9 C 95 % 15 lf 1011,9 hPa 0,0 l/m 0 min 0 min 0 W/m 14,6 km/h (3 Bft)
08.07.2015 21:48 15,4 C 13,9 C 95 % 15 lf 1012,0 hPa 0,0 l/m 0 min 0 min 0 W/m 18,8 km/h (3 Bft)
08.07.2015 21:50 15,4 C 13,9 C 95 % 15 lf 1012,1 hPa 0,0 l/m 0 min 0 min 0 W/m 12,6 km/h (3 Bft)
08.07.2015 21:52 15,4 C 13,9 C 95 % 15 lf 1012,1 hPa 0,0 l/m 0 min 2 min 0 W/m 14,6 km/h (3 Bft)
08.07.2015 21:54 15,4 C 13,9 C 95 % 15 lf 1012,2 hPa 0,0 l/m 0 min 2 min 0 W/m 12,6 km/h (3 Bft)
08.07.2015 21:56 15,4 C 13,9 C 95 % 15 lf 1012,2 hPa 0,0 l/m 0 min 2 min 0 W/m 10,5 km/h (2 Bft)
08.07.2015 21:58 15,3 C 13,9 C 95 % 15 lf 1012,3 hPa 0,0 l/m 0 min 2 min 0 W/m 10,5 km/h (2 Bft)
08.07.2015 22:00 15,3 C 13,9 C 95 % 15 lf 1012,2 hPa 0,0 l/m 0 min 2 min 0 W/m 10,5 km/h (2 Bft)
08.07.2015 22:02 15,3 C 13,9 C 95 % 15 lf 1012,2 hPa 0,0 l/m 0 min 0 min 0 W/m 10,5 km/h (2 Bft)
08.07.2015 22:04 15,3 C 13,9 C 95 % 15 lf 1012,2 hPa 0,0 l/m 0 min 0 min 0 W/m 14,6 km/h (3 Bft)
08.07.2015 22:06 15,3 C 13,9 C 95 % 15 lf 1012,3 hPa 0,0 l/m 0 min 0 min 0 W/m 23,0 km/h (4 Bft)
08.07.2015 22:08 15,3 C 13,3 C 95 % 15 lf 1012,3 hPa 0,0 l/m 0 min 0 min 0 W/m 14,6 km/h (3 Bft)
08.07.2015 22:10 15,2 C 13,3 C 95 % 15 lf 1012,3 hPa 0,0 l/m 0 min 0 min 0 W/m 14,6 km/h (3 Bft)
08.07.2015 22:12 15,2 C 13,3 C 95 % 15 lf 1012,3 hPa 0,0 l/m 0 min 0 min 0 W/m 16,7 km/h (3 Bft)
08.07.2015 22:14 15,1 C 13,3 C 95 % 15 lf 1012,3 hPa 0,0 l/m 0 min 0 min 0 W/m 14,6 km/h (3 Bft)
08.07.2015 22:16 15,1 C 13,3 C 95 % 15 lf 1012,3 hPa 0,0 l/m 0 min 0 min 0 W/m 18,8 km/h (3 Bft)
08.07.2015 22:18 15,1 C 13,3 C 95 % 15 lf 1012,4 hPa 0,0 l/m 0 min 0 min 0 W/m 20,9 km/h (4 Bft)
08.07.2015 22:20 15,0 C 13,3 C 95 % 15 lf 1012,3 hPa 0,0 l/m 0 min 0 min 0 W/m 20,9 km/h (4 Bft)
08.07.2015 22:22 15,0 C 13,3 C 95 % 15 lf 1012,3 hPa 0,0 l/m 0 min 0 min 0 W/m 27,2 km/h (4 Bft)
08.07.2015 22:24 14,9 C 13,3 C 95 % 15 lf 1012,3 hPa 0,0 l/m 0 min 0 min 0 W/m 20,9 km/h (4 Bft)
08.07.2015 22:26 14,9 C 13,3 C 95 % 15 lf 1012,3 hPa 0,0 l/m 0 min 0 min 0 W/m 20,9 km/h (4 Bft)
08.07.2015 22:28 14,9 C 13,3 C 95 % 15 lf 1012,4 hPa 0,0 l/m 0 min 0 min 0 W/m 20,9 km/h (4 Bft)
08.07.2015 22:30 14,9 C 13,3 C 95 % 15 lf 1012,3 hPa 0,0 l/m 0 min 0 min 0 W/m 20,9 km/h (4 Bft)
08.07.2015 22:32 14,9 C 13,3 C 95 % 15 lf 1012,4 hPa 0,0 l/m 0 min 0 min 0 W/m 23,0 km/h (4 Bft)
08.07.2015 22:34 14,9 C 13,3 C 94 % 15 lf 1012,4 hPa 0,0 l/m 0 min 0 min 0 W/m 20,9 km/h (4 Bft)
08.07.2015 22:36 14,9 C 13,3 C 94 % 15 lf 1012,5 hPa 0,0 l/m 0 min 0 min 0 W/m 20,9 km/h (4 Bft)
08.07.2015 22:38 14,9 C 13,3 C 94 % 15 lf 1012,5 hPa 0,0 l/m 0 min 0 min 0 W/m 16,7 km/h (3 Bft)
08.07.2015 22:40 14,9 C 13,3 C 94 % 15 lf 1012,5 hPa 0,0 l/m 0 min 0 min 0 W/m 12,6 km/h (3 Bft)
08.07.2015 22:42 14,9 C 13,3 C 94 % 15 lf 1012,5 hPa 0,0 l/m 0 min 0 min 0 W/m 14,6 km/h (3 Bft)
08.07.2015 22:44 15,0 C 13,3 C 94 % 15 lf 1012,4 hPa 0,0 l/m 0 min 0 min 0 W/m 12,6 km/h (3 Bft)
08.07.2015 22:46 15,0 C 13,3 C 94 % 15 lf 1012,4 hPa 0,0 l/m 0 min 0 min 0 W/m 18,8 km/h (3 Bft)
08.07.2015 22:48 15,0 C 13,3 C 94 % 15 lf 1012,4 hPa 0,0 l/m 0 min 0 min 0 W/m 18,8 km/h (3 Bft)
08.07.2015 22:50 15,0 C 13,3 C 94 % 15 lf 1012,5 hPa 0,0 l/m 0 min 0 min 0 W/m 18,8 km/h (3 Bft)
08.07.2015 22:52 15,0 C 13,3 C 94 % 15 lf 1012,4 hPa 0,0 l/m 0 min 0 min 0 W/m 14,6 km/h (3 Bft)
08.07.2015 22:54 15,0 C 13,3 C 94 % 15 lf 1012,4 hPa 0,0 l/m 0 min 0 min 0 W/m 23,0 km/h (4 Bft)
08.07.2015 22:56 15,0 C 13,3 C 94 % 15 lf 1012,4 hPa 0,0 l/m 0 min 0 min 0 W/m 16,7 km/h (3 Bft)
08.07.2015 22:58 15,0 C 13,3 C 94 % 15 lf 1012,5 hPa 0,0 l/m 0 min 0 min 0 W/m 23,0 km/h (4 Bft)
08.07.2015 23:00 15,0 C 13,3 C 94 % 15 lf 1012,4 hPa 0,0 l/m 0 min 0 min 0 W/m 16,7 km/h (3 Bft)
08.07.2015 23:02 15,1 C 13,3 C 93 % 15 lf 1012,4 hPa 0,0 l/m 0 min 0 min 0 W/m 18,8 km/h (3 Bft)
08.07.2015 23:04 15,1 C 13,3 C 94 % 15 lf 1012,4 hPa 0,0 l/m 0 min 0 min 0 W/m 16,7 km/h (3 Bft)
08.07.2015 23:06 15,1 C 13,3 C 94 % 15 lf 1012,4 hPa 0,0 l/m 0 min 0 min 0 W/m 20,9 km/h (4 Bft)
08.07.2015 23:08 15,1 C 13,3 C 93 % 15 lf 1012,4 hPa 0,0 l/m 0 min 0 min 0 W/m 25,1 km/h (4 Bft)
08.07.2015 23:10 15,1 C 13,3 C 93 % 15 lf 1012,4 hPa 0,0 l/m 0 min 0 min 0 W/m 14,6 km/h (3 Bft)
08.07.2015 23:12 15,1 C 13,3 C 93 % 15 lf 1012,4 hPa 0,0 l/m 0 min 0 min 0 W/m 16,7 km/h (3 Bft)
08.07.2015 23:14 15,1 C 13,3 C 93 % 15 lf 1012,4 hPa 0,0 l/m 0 min 0 min 0 W/m 14,6 km/h (3 Bft)
08.07.2015 23:16 15,1 C 13,3 C 93 % 15 lf 1012,4 hPa 0,0 l/m 0 min 0 min 0 W/m 12,6 km/h (3 Bft)
08.07.2015 23:18 15,1 C 13,3 C 93 % 15 lf 1012,4 hPa 0,0 l/m 0 min 0 min 0 W/m 12,6 km/h (3 Bft)
08.07.2015 23:20 15,1 C 13,3 C 93 % 15 lf 1012,5 hPa 0,0 l/m 0 min 0 min 0 W/m 14,6 km/h (3 Bft)
08.07.2015 23:22 15,1 C 13,3 C 93 % 15 lf 1012,5 hPa 0,0 l/m 0 min 0 min 0 W/m 12,6 km/h (3 Bft)
08.07.2015 23:24 15,1 C 13,3 C 93 % 15 lf 1012,5 hPa 0,0 l/m 0 min 0 min 0 W/m 18,8 km/h (3 Bft)
08.07.2015 23:26 15,1 C 13,3 C 93 % 15 lf 1012,5 hPa 0,0 l/m 0 min 0 min 0 W/m 12,6 km/h (3 Bft)
08.07.2015 23:28 15,1 C 13,3 C 93 % 15 lf 1012,5 hPa 0,0 l/m 0 min 0 min 0 W/m 18,8 km/h (3 Bft)
08.07.2015 23:30 15,1 C 13,3 C 93 % 15 lf 1012,5 hPa 0,0 l/m 0 min 0 min 0 W/m 14,6 km/h (3 Bft)
08.07.2015 23:32 15,1 C 13,3 C 93 % 15 lf 1012,5 hPa 0,0 l/m 0 min 0 min 0 W/m 14,6 km/h (3 Bft)
08.07.2015 23:34 15,1 C 13,3 C 92 % 15 lf 1012,5 hPa 0,0 l/m 0 min 0 min 0 W/m 12,6 km/h (3 Bft)
08.07.2015 23:36 15,2 C 13,3 C 92 % 15 lf 1012,6 hPa 0,0 l/m 0 min 0 min 0 W/m 16,7 km/h (3 Bft)
08.07.2015 23:38 15,2 C 13,3 C 92 % 15 lf 1012,5 hPa 0,0 l/m 0 min 0 min 0 W/m 18,8 km/h (3 Bft)
08.07.2015 23:40 15,2 C 13,3 C 92 % 15 lf 1012,6 hPa 0,0 l/m 0 min 0 min 0 W/m 27,2 km/h (4 Bft)
08.07.2015 23:42 15,2 C 13,3 C 92 % 15 lf 1012,6 hPa 0,0 l/m 0 min 0 min 0 W/m 27,2 km/h (4 Bft)
08.07.2015 23:44 15,2 C 13,3 C 92 % 14 lf 1012,6 hPa 0,0 l/m 0 min 0 min 0 W/m 16,7 km/h (3 Bft)
08.07.2015 23:46 15,2 C 13,3 C 92 % 14 lf 1012,6 hPa 0,0 l/m 0 min 0 min 0 W/m 20,9 km/h (4 Bft)
08.07.2015 23:48 15,2 C 13,3 C 92 % 14 lf 1012,6 hPa 0,0 l/m 0 min 0 min 0 W/m 18,8 km/h (3 Bft)
08.07.2015 23:50 15,2 C 13,3 C 92 % 13 lf 1012,7 hPa 0,0 l/m 0 min 0 min 0 W/m 20,9 km/h (4 Bft)
08.07.2015 23:52 15,2 C 13,3 C 92 % 14 lf 1012,7 hPa 0,0 l/m 0 min 0 min 0 W/m 14,6 km/h (3 Bft)
08.07.2015 23:54 15,3 C 13,3 C 92 % 13 lf 1012,6 hPa 0,0 l/m 0 min 0 min 0 W/m 16,7 km/h (3 Bft)
08.07.2015 23:56 15,3 C 13,3 C 92 % 13 lf 1012,6 hPa 0,0 l/m 0 min 0 min 0 W/m 25,1 km/h (4 Bft)
08.07.2015 23:58 15,3 C 13,3 C 92 % 12 lf 1012,7 hPa 0,0 l/m 0 min 0 min 0 W/m 16,7 km/h (3 Bft)
_ Min-Zeit 05:02 04:32 12:22 00:06 00:00 - - - - 20:50
Minimum _ 13,6 C 11,7 C 66 % 0 lf 1007,1 hPa - - - - 2,1 km/h (1 Bft)
_ Max-Zeit 00:00 11:02 21:30 00:00 23:50 20:02 06:54 00:00 11:04 12:22
Maximum _ 20,1 C 21,7 C 95 % 15 lf 1012,7 hPa 1,6 l/m 2 min 2 min 1183 W/m 54,4 km/h
W-SW (7 Bft)
Durchschnitt _ 16,2 C 14,8 C 85 % 7 lf 1009,9 hPa #12,4 l/m #5:53 h #4:42 h 252 W/m 25,7 km/h (4 Bft)
© 2015 W. Hausmann